Observation data for Fort Lewis CO on 06/25/2019      Previous  Date  Next       Current Mesonet Observations  Soil Data  Daily Summary Page  Observations in Plain Language
KFL1 250500Z 05010KT 10/M03 A3022 RMK A01 T00991029  RH  040%=      5-min Rain = 0
KFL1 250501Z 04010KT 10/M03 A3022 RMK A01 T01001029  RH  040%=      5-min Rain = 0
KFL1 250502Z 04009KT 10/M03 A3022 RMK A01 T01001030  RH  040%=      5-min Rain = 0
KFL1 250503Z 04009KT 10/M03 A3022 RMK A01 T01011031  RH  039%=      5-min Rain = 0
KFL1 250504Z 04009KT 10/M03 A3022 RMK A01 T01011033  RH  039%=      5-min Rain = 0
KFL1 250505Z 04010KT 10/M03 A3022 RMK A01 T01041033  RH  038%=      5-min Rain = 0
KFL1 250506Z 04010KT 11/M03 A3022 RMK A01 T01051034  RH  037%=      5-min Rain = 0
KFL1 250507Z 04010KT 11/M04 A3022 RMK A01 T01071035  RH  037%=      5-min Rain = 0
KFL1 250508Z 04010KT 11/M04 A3022 RMK A01 T01081036  RH  036%=      5-min Rain = 0
KFL1 250509Z 03010KT 11/M04 A3022 RMK A01 T01101035  RH  036%=      5-min Rain = 0
KFL1 250510Z 03009KT 11/M04 A3022 RMK A01 T01101036  RH  036%=      5-min Rain = 0
KFL1 250511Z 03011KT 11/M04 A3022 RMK A01 T01121035  RH  035%=      5-min Rain = 0
KFL1 250512Z 04011KT 11/M04 A3022 RMK A01 T01131038  RH  035%=      5-min Rain = 0
KFL1 250513Z 03011KT 11/M04 A3022 RMK A01 T01141040  RH  034%=      5-min Rain = 0
KFL1 250514Z 04011KT 12/M04 A3022 RMK A01 T01171042  RH  033%=      5-min Rain = 0
KFL1 250515Z 04010KT 12/M04 A3022 RMK A01 T01221044  RH  031%=      5-min Rain = 0
KFL1 250516Z 03010KT 13/M04 A3022 RMK A01 T01261044  RH  030%=      5-min Rain = 0
KFL1 250517Z 03010KT 13/M05 A3022 RMK A01 T01281048  RH  029%=      5-min Rain = 0
KFL1 250518Z 04011KT 13/M05 A3022 RMK A01 T01301046  RH  029%=      5-min Rain = 0
KFL1 250519Z 04011KT 13/M05 A3022 RMK A01 T01301046  RH  029%=      5-min Rain = 0
KFL1 250520Z 03012KT 13/M04 A3022 RMK A01 T01301044  RH  029%=      5-min Rain = 0
KFL1 250521Z 03008KT 13/M04 A3022 RMK A01 T01291042  RH  030%=      5-min Rain = 0
KFL1 250522Z 03007KT 13/M04 A3022 RMK A01 T01261039  RH  031%=      5-min Rain = 0
KFL1 250523Z 03007KT 12/M04 A3022 RMK A01 T01231036  RH  033%=      5-min Rain = 0
KFL1 250524Z 03008KT 12/M04 A3022 RMK A01 T01201040  RH  032%=      5-min Rain = 0
KFL1 250525Z 03008KT 12/M04 A3022 RMK A01 T01201044  RH  031%=      5-min Rain = 0
KFL1 250526Z 03008KT 12/M04 A3022 RMK A01 T01221043  RH  032%=      5-min Rain = 0
KFL1 250527Z 03008KT 12/M04 A3022 RMK A01 T01211039  RH  032%=      5-min Rain = 0
KFL1 250528Z 03008KT 12/M04 A3022 RMK A01 T01201038  RH  033%=      5-min Rain = 0
KFL1 250529Z 03008KT 12/M04 A3022 RMK A01 T01181036  RH  034%=      5-min Rain = 0
KFL1 250530Z 03008KT 12/M03 A3022 RMK A01 T01171033  RH  035%=      5-min Rain = 0
KFL1 250531Z 03009KT 11/M03 A3022 RMK A01 T01141033  RH  036%=      5-min Rain = 0
KFL1 250532Z 03009KT 11/M03 A3022 RMK A01 T01111032  RH  037%=      5-min Rain = 0
KFL1 250533Z 03008KT 11/M03 A3022 RMK A01 T01111034  RH  036%=      5-min Rain = 0
KFL1 250534Z 03010KT 11/M04 A3022 RMK A01 T01101035  RH  036%=      5-min Rain = 0
KFL1 250535Z 03010KT 11/M04 A3022 RMK A01 T01101035  RH  036%=      5-min Rain = 0
KFL1 250536Z 03009KT 11/M04 A3022 RMK A01 T01111035  RH  036%=      5-min Rain = 0
KFL1 250537Z 03008KT 11/M04 A3022 RMK A01 T01111036  RH  036%=      5-min Rain = 0
KFL1 250538Z 03009KT 11/M03 A3022 RMK A01 T01121032  RH  036%=      5-min Rain = 0
KFL1 250539Z 03008KT 11/M03 A3022 RMK A01 T01111034  RH  036%=      5-min Rain = 0
KFL1 250540Z 03008KT 11/M04 A3022 RMK A01 T01111036  RH  036%=      5-min Rain = 0
KFL1 250541Z 03007KT 11/M04 A3022 RMK A01 T01121037  RH  035%=      5-min Rain = 0
KFL1 250542Z 03007KT 11/M03 A3022 RMK A01 T01131034  RH  036%=      5-min Rain = 0
KFL1 250543Z 04008KT 11/M04 A3022 RMK A01 T01121038  RH  035%=      5-min Rain = 0
KFL1 250544Z 03007KT 11/M04 A3022 RMK A01 T01141042  RH  033%=      5-min Rain = 0
KFL1 250545Z 03007KT 12/M04 A3022 RMK A01 T01161042  RH  033%=      5-min Rain = 0
KFL1 250546Z 03007KT 12/M04 A3022 RMK A01 T01151039  RH  034%=      5-min Rain = 0
KFL1 250547Z 03008KT 12/M04 A3022 RMK A01 T01161038  RH  034%=      5-min Rain = 0
KFL1 250548Z 03008KT 12/M04 A3022 RMK A01 T01151042  RH  033%=      5-min Rain = 0
KFL1 250549Z 03008KT 12/M05 A3022 RMK A01 T01161045  RH  032%=      5-min Rain = 0
KFL1 250550Z 04007KT 12/M04 A3022 RMK A01 T01191044  RH  032%=      5-min Rain = 0
KFL1 250551Z 03007KT 12/M04 A3022 RMK A01 T01191044  RH  032%=      5-min Rain = 0
KFL1 250552Z 04007KT 12/M04 A3022 RMK A01 T01181044  RH  032%=      5-min Rain = 0
KFL1 250553Z 03007KT 12/M04 A3022 RMK A01 T01191042  RH  032%=      5-min Rain = 0
KFL1 250554Z 03006KT 12/M05 A3022 RMK A01 T01171045  RH  032%=      5-min Rain = 0
KFL1 250555Z 03007KT 12/M04 A3022 RMK A01 T01171043  RH  032%=      5-min Rain = 0
KFL1 250556Z 04008KT 12/M04 A3022 RMK A01 T01161043  RH  032%=      5-min Rain = 0
KFL1 250557Z 05007KT 12/M04 A3022 RMK A01 T01161040  RH  033%=      5-min Rain = 0
KFL1 250558Z 05006KT 11/M04 A3022 RMK A01 T01131038  RH  034%=      5-min Rain = 0
KFL1 250559Z 06005KT 11/M03 A3022 RMK A01 T01111033  RH  036%=      5-min Rain = 0
KFL1 250600Z 05007KT 11/M03 A3022 RMK A01 T01081028  RH  038%=      5-min Rain = 0
KFL1 250601Z 05008KT 10/M03 A3022 RMK A01 T01041028  RH  039%=      5-min Rain = 0
KFL1 250602Z 04011KT 10/M03 A3022 RMK A01 T01031032  RH  039%=      5-min Rain = 0
KFL1 250603Z 04011KT 10/M04 A3022 RMK A01 T01031035  RH  038%=      5-min Rain = 0
KFL1 250604Z 04010KT 10/M04 A3022 RMK A01 T01041040  RH  036%=      5-min Rain = 0
KFL1 250605Z 04010KT 11/M04 A3022 RMK A01 T01071041  RH  035%=      5-min Rain = 0
KFL1 250606Z 04010KT 11/M04 A3022 RMK A01 T01091041  RH  035%=      5-min Rain = 0
KFL1 250607Z 04010KT 11/M04 A3022 RMK A01 T01111042  RH  034%=      5-min Rain = 0
KFL1 250608Z 04008KT 11/M04 A3022 RMK A01 T01121043  RH  033%=      5-min Rain = 0
KFL1 250609Z 04008KT 12/M04 A3022 RMK A01 T01151042  RH  033%=      5-min Rain = 0
KFL1 250610Z 04009KT 11/M04 A3022 RMK A01 T01141042  RH  033%=      5-min Rain = 0
KFL1 250611Z 04009KT 12/M04 A3022 RMK A01 T01161041  RH  033%=      5-min Rain = 0
KFL1 250612Z 04009KT 12/M04 A3022 RMK A01 T01161042  RH  033%=      5-min Rain = 0
KFL1 250613Z 04008KT 12/M04 A3022 RMK A01 T01161042  RH  033%=      5-min Rain = 0
KFL1 250614Z 04008KT 12/M04 A3022 RMK A01 T01161042  RH  033%=      5-min Rain = 0
KFL1 250615Z 05008KT 12/M04 A3022 RMK A01 T01161041  RH  033%=      5-min Rain = 0
KFL1 250616Z 05008KT 11/M04 A3022 RMK A01 T01141042  RH  033%=      5-min Rain = 0
KFL1 250617Z 05008KT 12/M04 A3022 RMK A01 T01151039  RH  034%=      5-min Rain = 0
KFL1 250618Z 04009KT 11/M04 A3022 RMK A01 T01141038  RH  034%=      5-min Rain = 0
KFL1 250619Z 05009KT 11/M04 A3022 RMK A01 T01111038  RH  035%=      5-min Rain = 0
KFL1 250620Z 05009KT 11/M04 A3022 RMK A01 T01091036  RH  036%=      5-min Rain = 0
KFL1 250621Z 05008KT 11/M04 A3022 RMK A01 T01081036  RH  036%=      5-min Rain = 0
KFL1 250622Z 05009KT 11/M04 A3022 RMK A01 T01061037  RH  036%=      5-min Rain = 0
KFL1 250623Z 04009KT 11/M04 A3022 RMK A01 T01071035  RH  037%=      5-min Rain = 0
KFL1 250624Z 05008KT 11/M04 A3022 RMK A01 T01051035  RH  037%=      5-min Rain = 0
KFL1 250625Z 04009KT 11/M04 A3022 RMK A01 T01051035  RH  037%=      5-min Rain = 0
KFL1 250626Z 04009KT 10/M04 A3022 RMK A01 T01041036  RH  037%=      5-min Rain = 0
KFL1 250627Z 04009KT 10/M04 A3022 RMK A01 T01041036  RH  037%=      5-min Rain = 0
KFL1 250628Z 04009KT 10/M04 A3022 RMK A01 T01031036  RH  037%=      5-min Rain = 0
KFL1 250629Z 03009KT 10/M04 A3022 RMK A01 T01031035  RH  037%=      5-min Rain = 0
KFL1 250630Z 03008KT 10/M04 A3022 RMK A01 T01041035  RH  038%=      5-min Rain = 0
KFL1 250631Z 03007KT 10/M04 A3022 RMK A01 T01031037  RH  037%=      5-min Rain = 0
KFL1 250632Z 03008KT 10/M04 A3021 RMK A01 T01031038  RH  037%=      5-min Rain = 0
KFL1 250633Z 03007KT 11/M04 A3021 RMK A01 T01061037  RH  037%=      5-min Rain = 0
KFL1 250634Z 03008KT 10/M04 A3021 RMK A01 T01041038  RH  037%=      5-min Rain = 0
KFL1 250635Z 03009KT 11/M04 A3021 RMK A01 T01061036  RH  037%=      5-min Rain = 0
KFL1 250636Z 04009KT 11/M04 A3021 RMK A01 T01051036  RH  037%=      5-min Rain = 0
KFL1 250637Z 03010KT 11/M04 A3021 RMK A01 T01061041  RH  035%=      5-min Rain = 0
KFL1 250638Z 04009KT 11/M04 A3021 RMK A01 T01101041  RH  035%=      5-min Rain = 0
KFL1 250639Z 04008KT 11/M04 A3021 RMK A01 T01121042  RH  034%=      5-min Rain = 0
KFL1 250640Z 03008KT 11/M04 A3021 RMK A01 T01141042  RH  033%=      5-min Rain = 0
KFL1 250641Z 03007KT 11/M04 A3021 RMK A01 T01141041  RH  033%=      5-min Rain = 0
KFL1 250642Z 03007KT 11/M04 A3021 RMK A01 T01141035  RH  035%=      5-min Rain = 0
KFL1 250643Z 03007KT 11/M04 A3021 RMK A01 T01121035  RH  036%=      5-min Rain = 0
KFL1 250644Z 03007KT 11/M04 A3021 RMK A01 T01111039  RH  035%=      5-min Rain = 0
KFL1 250645Z 04007KT 11/M04 A3021 RMK A01 T01111040  RH  034%=      5-min Rain = 0
KFL1 250646Z 03008KT 11/M04 A3021 RMK A01 T01111043  RH  034%=      5-min Rain = 0
KFL1 250647Z 03008KT 11/M04 A3021 RMK A01 T01121043  RH  033%=      5-min Rain = 0
KFL1 250648Z 03007KT 11/M04 A3021 RMK A01 T01131042  RH  033%=      5-min Rain = 0
KFL1 250649Z 03007KT 11/M04 A3021 RMK A01 T01131041  RH  034%=      5-min Rain = 0
KFL1 250650Z 03007KT 11/M04 A3021 RMK A01 T01131038  RH  034%=      5-min Rain = 0
KFL1 250651Z 04007KT 11/M04 A3021 RMK A01 T01121040  RH  034%=      5-min Rain = 0
KFL1 250652Z 04007KT 11/M04 A3021 RMK A01 T01101040  RH  035%=      5-min Rain = 0
KFL1 250653Z 03007KT 11/M04 A3021 RMK A01 T01091039  RH  035%=      5-min Rain = 0
KFL1 250654Z 04007KT 11/M04 A3021 RMK A01 T01081038  RH  036%=      5-min Rain = 0
KFL1 250655Z 04007KT 11/M04 A3022 RMK A01 T01071037  RH  036%=      5-min Rain = 0
KFL1 250656Z 04007KT 11/M04 A3022 RMK A01 T01051036  RH  037%=      5-min Rain = 0
KFL1 250657Z 04007KT 10/M04 A3022 RMK A01 T01041035  RH  037%=      5-min Rain = 0
KFL1 250658Z 05007KT 10/M03 A3022 RMK A01 T01021034  RH  038%=      5-min Rain = 0
KFL1 250659Z 04008KT 10/M03 A3022 RMK A01 T01001033  RH  039%=      5-min Rain = 0
KFL1 250700Z 04008KT 10/M03 A3022 RMK A01 T00991033  RH  039%=      5-min Rain = 0
KFL1 250701Z 04008KT 10/M03 A3022 RMK A01 T00991031  RH  040%=      5-min Rain = 0
KFL1 250702Z 04009KT 10/M03 A3021 RMK A01 T00991032  RH  040%=      5-min Rain = 0
KFL1 250703Z 04009KT 10/M03 A3022 RMK A01 T00981033  RH  040%=      5-min Rain = 0
KFL1 250704Z 04009KT 10/M03 A3021 RMK A01 T00981032  RH  040%=      5-min Rain = 0
KFL1 250705Z 04009KT 10/M03 A3022 RMK A01 T00961031  RH  041%=      5-min Rain = 0
KFL1 250706Z 04009KT 10/M03 A3021 RMK A01 T00961031  RH  041%=      5-min Rain = 0
KFL1 250707Z 04008KT 10/M03 A3021 RMK A01 T00961031  RH  041%=      5-min Rain = 0
KFL1 250708Z 05008KT 10/M03 A3021 RMK A01 T00961032  RH  040%=      5-min Rain = 0
KFL1 250709Z 04009KT 10/M03 A3021 RMK A01 T00961033  RH  040%=      5-min Rain = 0
KFL1 250710Z 04008KT 10/M03 A3021 RMK A01 T00961033  RH  040%=      5-min Rain = 0
KFL1 250711Z 05008KT 10/M03 A3021 RMK A01 T00971032  RH  040%=      5-min Rain = 0
KFL1 250712Z 04008KT 10/M03 A3021 RMK A01 T00971031  RH  040%=      5-min Rain = 0
KFL1 250713Z 05008KT 10/M03 A3021 RMK A01 T00961032  RH  040%=      5-min Rain = 0
KFL1 250714Z 05009KT 10/M03 A3021 RMK A01 T00971033  RH  040%=      5-min Rain = 0
KFL1 250715Z 04009KT 10/M04 A3021 RMK A01 T00971035  RH  039%=      5-min Rain = 0
KFL1 250716Z 04008KT 10/M04 A3021 RMK A01 T00971035  RH  039%=      5-min Rain = 0
KFL1 250717Z 04008KT 10/M03 A3021 RMK A01 T00991034  RH  039%=      5-min Rain = 0
KFL1 250718Z 04009KT 10/M03 A3021 RMK A01 T00991034  RH  039%=      5-min Rain = 0
KFL1 250719Z 04009KT 10/M03 A3021 RMK A01 T00991034  RH  039%=      5-min Rain = 0
KFL1 250720Z 03009KT 10/M03 A3021 RMK A01 T00981033  RH  040%=      5-min Rain = 0
KFL1 250721Z 03010KT 10/M03 A3021 RMK A01 T00981032  RH  040%=      5-min Rain = 0
KFL1 250722Z 04010KT 10/M03 A3021 RMK A01 T00981032  RH  040%=      5-min Rain = 0
KFL1 250723Z 04009KT 10/M03 A3021 RMK A01 T00981032  RH  040%=      5-min Rain = 0
KFL1 250724Z 03009KT 10/M03 A3021 RMK A01 T00971032  RH  040%=      5-min Rain = 0
KFL1 250725Z 03009KT 10/M03 A3021 RMK A01 T00981030  RH  040%=      5-min Rain = 0
KFL1 250726Z 03009KT 10/M03 A3021 RMK A01 T00961031  RH  041%=      5-min Rain = 0
KFL1 250727Z 03008KT 10/M03 A3021 RMK A01 T00961031  RH  041%=      5-min Rain = 0
KFL1 250728Z 04009KT 10/M03 A3021 RMK A01 T00951033  RH  040%=      5-min Rain = 0
KFL1 250729Z 04009KT 10/M03 A3021 RMK A01 T00971032  RH  040%=      5-min Rain = 0
KFL1 250730Z 03009KT 10/M03 A3021 RMK A01 T00971031  RH  040%=      5-min Rain = 0
KFL1 250731Z 03009KT 10/M03 A3021 RMK A01 T00971031  RH  040%=      5-min Rain = 0
KFL1 250732Z 04008KT 10/M03 A3021 RMK A01 T00971031  RH  041%=      5-min Rain = 0
KFL1 250733Z 04009KT 10/M03 A3021 RMK A01 T00951032  RH  041%=      5-min Rain = 0
KFL1 250734Z 04007KT 10/M03 A3021 RMK A01 T00951031  RH  041%=      5-min Rain = 0
KFL1 250735Z 04008KT 09/M03 A3021 RMK A01 T00941031  RH  041%=      5-min Rain = 0
KFL1 250736Z 04009KT 09/M03 A3021 RMK A01 T00931030  RH  042%=      5-min Rain = 0
KFL1 250737Z 04009KT 09/M03 A3021 RMK A01 T00931030  RH  042%=      5-min Rain = 0
KFL1 250738Z 03008KT 09/M03 A3021 RMK A01 T00921030  RH  042%=      5-min Rain = 0
KFL1 250739Z 04007KT 09/M03 A3021 RMK A01 T00931027  RH  043%=      5-min Rain = 0
KFL1 250740Z 05007KT 09/M03 A3021 RMK A01 T00901028  RH  043%=      5-min Rain = 0
KFL1 250741Z 05008KT 09/M03 A3021 RMK A01 T00881026  RH  045%=      5-min Rain = 0
KFL1 250742Z 05008KT 09/M03 A3021 RMK A01 T00851025  RH  046%=      5-min Rain = 0
KFL1 250743Z 05008KT 08/M03 A3021 RMK A01 T00831025  RH  046%=      5-min Rain = 0
KFL1 250744Z 05008KT 08/M02 A3021 RMK A01 T00841022  RH  047%=      5-min Rain = 0
KFL1 250745Z 04008KT 08/M02 A3021 RMK A01 T00821024  RH  047%=      5-min Rain = 0
KFL1 250746Z 04009KT 08/M03 A3021 RMK A01 T00811025  RH  047%=      5-min Rain = 0
KFL1 250747Z 04009KT 08/M02 A3021 RMK A01 T00821024  RH  047%=      5-min Rain = 0
KFL1 250748Z 04009KT 08/M03 A3021 RMK A01 T00821025  RH  047%=      5-min Rain = 0
KFL1 250749Z 04009KT 08/M03 A3021 RMK A01 T00821027  RH  046%=      5-min Rain = 0
KFL1 250750Z 04009KT 08/M03 A3021 RMK A01 T00831028  RH  046%=      5-min Rain = 0
KFL1 250751Z 04009KT 09/M03 A3021 RMK A01 T00851027  RH  045%=      5-min Rain = 0
KFL1 250752Z 04010KT 08/M03 A3021 RMK A01 T00841027  RH  045%=      5-min Rain = 0
KFL1 250753Z 04010KT 09/M03 A3021 RMK A01 T00851028  RH  045%=      5-min Rain = 0
KFL1 250754Z 04010KT 09/M03 A3021 RMK A01 T00851029  RH  045%=      5-min Rain = 0
KFL1 250755Z 03009KT 09/M03 A3021 RMK A01 T00851030  RH  044%=      5-min Rain = 0
KFL1 250756Z 05009KT 09/M03 A3021 RMK A01 T00881029  RH  043%=      5-min Rain = 0
KFL1 250757Z 04010KT 09/M03 A3021 RMK A01 T00891030  RH  043%=      5-min Rain = 0
KFL1 250758Z 04010KT 09/M03 A3021 RMK A01 T00901031  RH  042%=      5-min Rain = 0
KFL1 250759Z 04009KT 09/M03 A3021 RMK A01 T00911031  RH  042%=      5-min Rain = 0
KFL1 250800Z 04010KT 09/M03 A3021 RMK A01 T00921030  RH  042%=      5-min Rain = 0
KFL1 250801Z 04009KT 09/M03 A3021 RMK A01 T00911031  RH  042%=      5-min Rain = 0
KFL1 250802Z 04009KT 09/M03 A3021 RMK A01 T00911031  RH  042%=      5-min Rain = 0
KFL1 250803Z 04009KT 09/M03 A3021 RMK A01 T00911030  RH  042%=      5-min Rain = 0
KFL1 250804Z 04008KT 09/M03 A3021 RMK A01 T00901030  RH  043%=      5-min Rain = 0
KFL1 250805Z 03010KT 09/M03 A3021 RMK A01 T00911028  RH  043%=      5-min Rain = 0
KFL1 250806Z 03009KT 09/M03 A3021 RMK A01 T00901028  RH  043%=      5-min Rain = 0
KFL1 250807Z 04008KT 09/M03 A3021 RMK A01 T00901028  RH  043%=      5-min Rain = 0
KFL1 250808Z 03008KT 09/M03 A3021 RMK A01 T00891029  RH  043%=      5-min Rain = 0
KFL1 250809Z 03008KT 09/M03 A3021 RMK A01 T00901029  RH  043%=      5-min Rain = 0
KFL1 250810Z 03008KT 09/M03 A3021 RMK A01 T00891028  RH  044%=      5-min Rain = 0
KFL1 250811Z 03008KT 09/M03 A3021 RMK A01 T00891028  RH  044%=      5-min Rain = 0
KFL1 250812Z 03008KT 09/M03 A3021 RMK A01 T00881029  RH  044%=      5-min Rain = 0
KFL1 250813Z 03008KT 09/M03 A3021 RMK A01 T00881027  RH  044%=      5-min Rain = 0
KFL1 250814Z 03008KT 09/M03 A3021 RMK A01 T00861029  RH  044%=      5-min Rain = 0
KFL1 250815Z 03007KT 09/M03 A3021 RMK A01 T00861027  RH  045%=      5-min Rain = 0
KFL1 250816Z 03007KT 09/M03 A3021 RMK A01 T00851027  RH  045%=      5-min Rain = 0
KFL1 250817Z 03007KT 08/M02 A3021 RMK A01 T00841024  RH  047%=      5-min Rain = 0
KFL1 250818Z 03007KT 08/M02 A3021 RMK A01 T00801021  RH  049%=      5-min Rain = 0
KFL1 250819Z 03006KT 08/M02 A3021 RMK A01 T00771022  RH  050%=      5-min Rain = 0
KFL1 250820Z 03006KT 07/M02 A3021 RMK A01 T00731022  RH  051%=      5-min Rain = 0
KFL1 250821Z 03006KT 07/M02 A3021 RMK A01 T00701022  RH  052%=      5-min Rain = 0
KFL1 250822Z 03007KT 07/M02 A3021 RMK A01 T00691020  RH  053%=      5-min Rain = 0
KFL1 250823Z 02007KT 07/M02 A302 RMK A01 T00661021  RH  054%=      5-min Rain = 0
KFL1 250824Z 03007KT 06/M02 A302 RMK A01 T00641021  RH  054%=      5-min Rain = 0
KFL1 250825Z 03007KT 06/M02 A302 RMK A01 T00641019  RH  055%=      5-min Rain = 0
KFL1 250826Z 02007KT 06/M02 A302 RMK A01 T00631019  RH  056%=      5-min Rain = 0
KFL1 250827Z 02008KT 06/M02 A302 RMK A01 T00621019  RH  056%=      5-min Rain = 0
KFL1 250828Z 02008KT 06/M02 A302 RMK A01 T00611019  RH  057%=      5-min Rain = 0
KFL1 250829Z 03008KT 06/M02 A302 RMK A01 T00601018  RH  057%=      5-min Rain = 0
KFL1 250830Z 03007KT 06/M02 A302 RMK A01 T00591018  RH  058%=      5-min Rain = 0
KFL1 250831Z 03005KT 06/M02 A302 RMK A01 T00591018  RH  058%=      5-min Rain = 0
KFL1 250832Z 03005KT 06/M02 A302 RMK A01 T00591018  RH  058%=      5-min Rain = 0
KFL1 250833Z 03005KT 06/M02 A302 RMK A01 T00591019  RH  057%=      5-min Rain = 0
KFL1 250834Z 03005KT 06/M02 A302 RMK A01 T00591021  RH  057%=      5-min Rain = 0
KFL1 250835Z 03005KT 06/M02 A302 RMK A01 T00601020  RH  056%=      5-min Rain = 0
KFL1 250836Z 03006KT 06/M02 A302 RMK A01 T00601020  RH  056%=      5-min Rain = 0
KFL1 250837Z 03005KT 06/M02 A302 RMK A01 T00601021  RH  056%=      5-min Rain = 0
KFL1 250838Z 03005KT 06/M02 A302 RMK A01 T00611020  RH  056%=      5-min Rain = 0
KFL1 250839Z 03006KT 06/M02 A302 RMK A01 T00601021  RH  056%=      5-min Rain = 0
KFL1 250840Z 03006KT 06/M02 A302 RMK A01 T00601022  RH  056%=      5-min Rain = 0
KFL1 250841Z 03006KT 06/M02 A302 RMK A01 T00611022  RH  055%=      5-min Rain = 0
KFL1 250842Z 03006KT 06/M02 A302 RMK A01 T00631022  RH  054%=      5-min Rain = 0
KFL1 250843Z 03006KT 07/M02 A302 RMK A01 T00651022  RH  054%=      5-min Rain = 0
KFL1 250844Z 03006KT 07/M02 A302 RMK A01 T00651022  RH  054%=      5-min Rain = 0
KFL1 250845Z 03006KT 06/M02 A302 RMK A01 T00641022  RH  054%=      5-min Rain = 0
KFL1 250846Z 03006KT 06/M02 A302 RMK A01 T00641021  RH  054%=      5-min Rain = 0
KFL1 250847Z 03006KT 06/M02 A302 RMK A01 T00631024  RH  054%=      5-min Rain = 0
KFL1 250848Z 03006KT 06/M02 A302 RMK A01 T00641021  RH  055%=      5-min Rain = 0
KFL1 250849Z 03005KT 06/M02 A302 RMK A01 T00621018  RH  056%=      5-min Rain = 0
KFL1 250850Z 03005KT 06/M02 A302 RMK A01 T00601018  RH  057%=      5-min Rain = 0
KFL1 250851Z 03005KT 06/M02 A302 RMK A01 T00591018  RH  058%=      5-min Rain = 0
KFL1 250852Z 03005KT 06/M02 A302 RMK A01 T00581018  RH  058%=      5-min Rain = 0
KFL1 250853Z 02006KT 06/M02 A302 RMK A01 T00561019  RH  058%=      5-min Rain = 0
KFL1 250854Z 03007KT 06/M02 A302 RMK A01 T00571019  RH  058%=      5-min Rain = 0
KFL1 250855Z 03006KT 06/M02 A302 RMK A01 T00561020  RH  058%=      5-min Rain = 0
KFL1 250856Z 03005KT 06/M02 A302 RMK A01 T00571020  RH  058%=      5-min Rain = 0
KFL1 250857Z 03005KT 06/M02 A3021 RMK A01 T00581019  RH  058%=      5-min Rain = 0
KFL1 250858Z 03006KT 06/M02 A3021 RMK A01 T00571021  RH  057%=      5-min Rain = 0
KFL1 250859Z 03007KT 06/M02 A3021 RMK A01 T00571021  RH  057%=      5-min Rain = 0
KFL1 250900Z 03006KT 06/M02 A3021 RMK A01 T00591021  RH  057%=      5-min Rain = 0
KFL1 250901Z 03005KT 06/M02 A3021 RMK A01 T00591021  RH  057%=      5-min Rain = 0
KFL1 250902Z 03005KT 06/M02 A3021 RMK A01 T00601020  RH  057%=      5-min Rain = 0
KFL1 250903Z 03005KT 06/M02 A3021 RMK A01 T00591020  RH  057%=      5-min Rain = 0
KFL1 250904Z 03006KT 06/M02 A3021 RMK A01 T00591021  RH  056%=      5-min Rain = 0
KFL1 250905Z 03006KT 06/M02 A3021 RMK A01 T00591022  RH  056%=      5-min Rain = 0
KFL1 250906Z 03006KT 06/M02 A3021 RMK A01 T00601021  RH  056%=      5-min Rain = 0
KFL1 250907Z 03006KT 06/M02 A3021 RMK A01 T00601024  RH  055%=      5-min Rain = 0
KFL1 250908Z 03006KT 06/M03 A3021 RMK A01 T00611025  RH  054%=      5-min Rain = 0
KFL1 250909Z 03006KT 06/M03 A3021 RMK A01 T00631026  RH  053%=      5-min Rain = 0
KFL1 250910Z 03006KT 07/M03 A3021 RMK A01 T00651026  RH  052%=      5-min Rain = 0
KFL1 250911Z 03006KT 07/M03 A3021 RMK A01 T00671027  RH  051%=      5-min Rain = 0
KFL1 250912Z 03006KT 07/M03 A3021 RMK A01 T00691028  RH  050%=      5-min Rain = 0
KFL1 250913Z 04006KT 07/M03 A3021 RMK A01 T00701029  RH  049%=      5-min Rain = 0
KFL1 250914Z 03006KT 07/M03 A302 RMK A01 T00711030  RH  049%=      5-min Rain = 0
KFL1 250915Z 04006KT 07/M03 A302 RMK A01 T00721029  RH  049%=      5-min Rain = 0
KFL1 250916Z 03006KT 07/M03 A302 RMK A01 T00711031  RH  048%=      5-min Rain = 0
KFL1 250917Z 04006KT 07/M03 A302 RMK A01 T00731030  RH  048%=      5-min Rain = 0
KFL1 250918Z 04007KT 07/M03 A302 RMK A01 T00731030  RH  048%=      5-min Rain = 0
KFL1 250919Z 04006KT 07/M03 A302 RMK A01 T00731030  RH  048%=      5-min Rain = 0
KFL1 250920Z 04007KT 07/M03 A302 RMK A01 T00731030  RH  048%=      5-min Rain = 0
KFL1 250921Z 04007KT 07/M03 A302 RMK A01 T00721029  RH  049%=      5-min Rain = 0
KFL1 250922Z 04007KT 07/M03 A302 RMK A01 T00721028  RH  049%=      5-min Rain = 0
KFL1 250923Z 04008KT 07/M03 A302 RMK A01 T00721028  RH  049%=      5-min Rain = 0
KFL1 250924Z 04008KT 07/M03 A302 RMK A01 T00721028  RH  049%=      5-min Rain = 0
KFL1 250925Z 04008KT 07/M03 A302 RMK A01 T00711028  RH  049%=      5-min Rain = 0
KFL1 250926Z 04008KT 07/M03 A302 RMK A01 T00721026  RH  050%=      5-min Rain = 0
KFL1 250927Z 04008KT 07/M03 A302 RMK A01 T00721026  RH  050%=      5-min Rain = 0
KFL1 250928Z 04007KT 07/M03 A302 RMK A01 T00711026  RH  050%=      5-min Rain = 0
KFL1 250929Z 04008KT 07/M03 A302 RMK A01 T00711026  RH  050%=      5-min Rain = 0
KFL1 250930Z 04008KT 07/M03 A302 RMK A01 T00711027  RH  050%=      5-min Rain = 0
KFL1 250931Z 04008KT 07/M03 A302 RMK A01 T00711027  RH  050%=      5-min Rain = 0
KFL1 250932Z 04008KT 07/M03 A302 RMK A01 T00721026  RH  050%=      5-min Rain = 0
KFL1 250933Z 04008KT 07/M03 A302 RMK A01 T00711027  RH  050%=      5-min Rain = 0
KFL1 250934Z 04008KT 07/M03 A302 RMK A01 T00731025  RH  050%=      5-min Rain = 0
KFL1 250935Z 04008KT 07/M03 A302 RMK A01 T00731025  RH  050%=      5-min Rain = 0
KFL1 250936Z 04008KT 07/M02 A302 RMK A01 T00731024  RH  050%=      5-min Rain = 0
KFL1 250937Z 04007KT 07/M02 A302 RMK A01 T00731024  RH  050%=      5-min Rain = 0
KFL1 250938Z 04007KT 07/M02 A302 RMK A01 T00721024  RH  050%=      5-min Rain = 0
KFL1 250939Z 04008KT 07/M02 A302 RMK A01 T00721024  RH  050%=      5-min Rain = 0
KFL1 250940Z 04007KT 07/M02 A302 RMK A01 T00721024  RH  051%=      5-min Rain = 0
KFL1 250941Z 04008KT 07/M02 A302 RMK A01 T00711024  RH  051%=      5-min Rain = 0
KFL1 250942Z 04008KT 07/M02 A302 RMK A01 T00711023  RH  051%=      5-min Rain = 0
KFL1 250943Z 04008KT 07/M02 A302 RMK A01 T00711021  RH  052%=      5-min Rain = 0
KFL1 250944Z 04008KT 07/M02 A302 RMK A01 T00701021  RH  052%=      5-min Rain = 0
KFL1 250945Z 04008KT 07/M02 A302 RMK A01 T00701021  RH  053%=      5-min Rain = 0
KFL1 250946Z 04009KT 07/M02 A302 RMK A01 T00701021  RH  053%=      5-min Rain = 0
KFL1 250947Z 04008KT 07/M02 A302 RMK A01 T00691022  RH  052%=      5-min Rain = 0
KFL1 250948Z 04009KT 07/M02 A302 RMK A01 T00701021  RH  052%=      5-min Rain = 0
KFL1 250949Z 04009KT 07/M02 A302 RMK A01 T00701022  RH  052%=      5-min Rain = 0
KFL1 250950Z 04008KT 07/M02 A302 RMK A01 T00701021  RH  052%=      5-min Rain = 0
KFL1 250951Z 04009KT 07/M02 A302 RMK A01 T00691022  RH  052%=      5-min Rain = 0
KFL1 250952Z 04009KT 07/M02 A302 RMK A01 T00701021  RH  052%=      5-min Rain = 0
KFL1 250953Z 04009KT 07/M02 A302 RMK A01 T00691022  RH  052%=      5-min Rain = 0
KFL1 250954Z 04009KT 07/M02 A302 RMK A01 T00701022  RH  052%=      5-min Rain = 0
KFL1 250955Z 04010KT 07/M02 A302 RMK A01 T00701023  RH  052%=      5-min Rain = 0
KFL1 250956Z 04010KT 07/M02 A302 RMK A01 T00711021  RH  052%=      5-min Rain = 0
KFL1 250957Z 04009KT 07/M02 A3021 RMK A01 T00701023  RH  051%=      5-min Rain = 0
KFL1 250958Z 04010KT 07/M02 A3021 RMK A01 T00721023  RH  051%=      5-min Rain = 0
KFL1 250959Z 04010KT 07/M02 A3021 RMK A01 T00731022  RH  051%=      5-min Rain = 0
KFL1 251000Z 04009KT 07/M02 A3021 RMK A01 T00721024  RH  050%=      5-min Rain = 0
KFL1 251001Z 04010KT 07/M02 A3021 RMK A01 T00731024  RH  050%=      5-min Rain = 0
KFL1 251002Z 04010KT 07/M02 A3021 RMK A01 T00731024  RH  050%=      5-min Rain = 0
KFL1 251003Z 04009KT 07/M03 A302 RMK A01 T00721025  RH  050%=      5-min Rain = 0
KFL1 251004Z 04009KT 07/M03 A3021 RMK A01 T00731025  RH  050%=      5-min Rain = 0
KFL1 251005Z 05010KT 07/M03 A302 RMK A01 T00731025  RH  050%=      5-min Rain = 0
KFL1 251006Z 05010KT 07/M02 A302 RMK A01 T00721024  RH  050%=      5-min Rain = 0
KFL1 251007Z 05010KT 07/M02 A302 RMK A01 T00741023  RH  050%=      5-min Rain = 0
KFL1 251008Z 05010KT 07/M02 A302 RMK A01 T00721024  RH  050%=      5-min Rain = 0
KFL1 251009Z 04009KT 07/M03 A302 RMK A01 T00721025  RH  050%=      5-min Rain = 0
KFL1 251010Z 04010KT 07/M03 A302 RMK A01 T00731025  RH  050%=      5-min Rain = 0
KFL1 251011Z 05010KT 07/M03 A302 RMK A01 T00741025  RH  050%=      5-min Rain = 0
KFL1 251012Z 05009KT 07/M02 A3021 RMK A01 T00741024  RH  050%=      5-min Rain = 0
KFL1 251013Z 04010KT 07/M02 A3021 RMK A01 T00741024  RH  050%=      5-min Rain = 0
KFL1 251014Z 04010KT 07/M03 A3021 RMK A01 T00731026  RH  049%=      5-min Rain = 0
KFL1 251015Z 04010KT 07/M03 A3021 RMK A01 T00741025  RH  049%=      5-min Rain = 0
KFL1 251016Z 04010KT 07/M03 A3021 RMK A01 T00741025  RH  049%=      5-min Rain = 0
KFL1 251017Z 04010KT 07/M03 A3021 RMK A01 T00741025  RH  049%=      5-min Rain = 0
KFL1 251018Z 04009KT 07/M03 A3021 RMK A01 T00741025  RH  049%=      5-min Rain = 0
KFL1 251019Z 04009KT 07/M03 A3021 RMK A01 T00741026  RH  049%=      5-min Rain = 0
KFL1 251020Z 04009KT 07/M03 A3021 RMK A01 T00731027  RH  049%=      5-min Rain = 0
KFL1 251021Z 04009KT 08/M02 A3021 RMK A01 T00751024  RH  049%=      5-min Rain = 0
KFL1 251022Z 04009KT 08/M02 A3021 RMK A01 T00751024  RH  049%=      5-min Rain = 0
KFL1 251023Z 04009KT 08/M02 A3021 RMK A01 T00751024  RH  050%=      5-min Rain = 0
KFL1 251024Z 04009KT 07/M02 A3021 RMK A01 T00741024  RH  050%=      5-min Rain = 0
KFL1 251025Z 04008KT 07/M02 A3021 RMK A01 T00741023  RH  050%=      5-min Rain = 0
KFL1 251026Z 05008KT 07/M02 A3021 RMK A01 T00731023  RH  050%=      5-min Rain = 0
KFL1 251027Z 04008KT 07/M02 A3021 RMK A01 T00731022  RH  051%=      5-min Rain = 0
KFL1 251028Z 05008KT 07/M02 A3021 RMK A01 T00721023  RH  051%=      5-min Rain = 0
KFL1 251029Z 05009KT 07/M02 A3022 RMK A01 T00731021  RH  051%=      5-min Rain = 0
KFL1 251030Z 05010KT 07/M02 A3022 RMK A01 T00721022  RH  051%=      5-min Rain = 0
KFL1 251031Z 05010KT 07/M02 A3022 RMK A01 T00721022  RH  051%=      5-min Rain = 0
KFL1 251032Z 05010KT 07/M03 A3022 RMK A01 T00711025  RH  051%=      5-min Rain = 0
KFL1 251033Z 04010KT 07/M02 A3022 RMK A01 T00731024  RH  050%=      5-min Rain = 0
KFL1 251034Z 05010KT 07/M03 A3022 RMK A01 T00721026  RH  050%=      5-min Rain = 0
KFL1 251035Z 04010KT 07/M02 A3022 RMK A01 T00741024  RH  050%=      5-min Rain = 0
KFL1 251036Z 04010KT 07/M03 A3022 RMK A01 T00731025  RH  050%=      5-min Rain = 0
KFL1 251037Z 04010KT 07/M03 A3022 RMK A01 T00731025  RH  050%=      5-min Rain = 0
KFL1 251038Z 04009KT 07/M02 A3022 RMK A01 T00731024  RH  050%=      5-min Rain = 0
KFL1 251039Z 05009KT 07/M02 A3022 RMK A01 T00721024  RH  050%=      5-min Rain = 0
KFL1 251040Z 05009KT 07/M02 A3022 RMK A01 T00721023  RH  051%=      5-min Rain = 0
KFL1 251041Z 04009KT 07/M02 A3022 RMK A01 T00721022  RH  051%=      5-min Rain = 0
KFL1 251042Z 04009KT 07/M02 A3022 RMK A01 T00711022  RH  051%=      5-min Rain = 0
KFL1 251043Z 04009KT 07/M02 A3022 RMK A01 T00711022  RH  052%=      5-min Rain = 0
KFL1 251044Z 04009KT 07/M02 A3022 RMK A01 T00701022  RH  052%=      5-min Rain = 0
KFL1 251045Z 04009KT 07/M02 A3022 RMK A01 T00701021  RH  052%=      5-min Rain = 0
KFL1 251046Z 04009KT 07/M02 A3022 RMK A01 T00701021  RH  052%=      5-min Rain = 0
KFL1 251047Z 04008KT 07/M02 A3022 RMK A01 T00701021  RH  052%=      5-min Rain = 0
KFL1 251048Z 04009KT 07/M02 A3022 RMK A01 T00711021  RH  052%=      5-min Rain = 0
KFL1 251049Z 04008KT 07/M02 A3022 RMK A01 T00701022  RH  052%=      5-min Rain = 0
KFL1 251050Z 04008KT 07/M02 A3022 RMK A01 T00701022  RH  052%=      5-min Rain = 0
KFL1 251051Z 04008KT 07/M02 A3022 RMK A01 T00711022  RH  052%=      5-min Rain = 0
KFL1 251052Z 04008KT 07/M02 A3022 RMK A01 T00711022  RH  052%=      5-min Rain = 0
KFL1 251053Z 04008KT 07/M02 A3022 RMK A01 T00701023  RH  051%=      5-min Rain = 0
KFL1 251054Z 03009KT 07/M02 A3022 RMK A01 T00711023  RH  051%=      5-min Rain = 0
KFL1 251055Z 04009KT 07/M02 A3022 RMK A01 T00701023  RH  051%=      5-min Rain = 0
KFL1 251056Z 04008KT 07/M02 A3022 RMK A01 T00711023  RH  051%=      5-min Rain = 0
KFL1 251057Z 04008KT 07/M02 A3022 RMK A01 T00711023  RH  051%=      5-min Rain = 0
KFL1 251058Z 04008KT 07/M02 A3022 RMK A01 T00711023  RH  051%=      5-min Rain = 0
KFL1 251059Z 04008KT 07/M02 A3022 RMK A01 T00701024  RH  051%=      5-min Rain = 0
KFL1 251100Z 03008KT 07/M02 A3022 RMK A01 T00711023  RH  051%=      5-min Rain = 0
KFL1 251101Z 04008KT 07/M02 A3022 RMK A01 T00701024  RH  051%=      5-min Rain = 0
KFL1 251102Z 04008KT 07/M02 A3022 RMK A01 T00711023  RH  051%=      5-min Rain = 0
KFL1 251103Z 04008KT 07/M02 A3022 RMK A01 T00711023  RH  051%=      5-min Rain = 0
KFL1 251104Z 04008KT 07/M02 A3022 RMK A01 T00711022  RH  052%=      5-min Rain = 0
KFL1 251105Z 04008KT 07/M02 A3022 RMK A01 T00711022  RH  052%=      5-min Rain = 0
KFL1 251106Z 04007KT 07/M02 A3022 RMK A01 T00711021  RH  052%=      5-min Rain = 0
KFL1 251107Z 05007KT 07/M02 A3022 RMK A01 T00701020  RH  053%=      5-min Rain = 0
KFL1 251108Z 04008KT 07/M02 A3022 RMK A01 T00691019  RH  053%=      5-min Rain = 0
KFL1 251109Z 05009KT 07/M02 A3022 RMK A01 T00681019  RH  054%=      5-min Rain = 0
KFL1 251110Z 05009KT 07/M02 A3022 RMK A01 T00681018  RH  054%=      5-min Rain = 0
KFL1 251111Z 05009KT 07/M02 A3022 RMK A01 T00661020  RH  054%=      5-min Rain = 0
KFL1 251112Z 05009KT 07/M02 A3022 RMK A01 T00661021  RH  054%=      5-min Rain = 0
KFL1 251113Z 05009KT 07/M02 A3022 RMK A01 T00661022  RH  053%=      5-min Rain = 0
KFL1 251114Z 05010KT 07/M02 A3022 RMK A01 T00671022  RH  053%=      5-min Rain = 0
KFL1 251115Z 05010KT 07/M02 A3022 RMK A01 T00681024  RH  052%=      5-min Rain = 0
KFL1 251116Z 05010KT 07/M02 A3023 RMK A01 T00691024  RH  051%=      5-min Rain = 0
KFL1 251117Z 05011KT 07/M02 A3023 RMK A01 T00701024  RH  051%=      5-min Rain = 0
KFL1 251118Z 05010KT 07/M03 A3023 RMK A01 T00711025  RH  051%=      5-min Rain = 0
KFL1 251119Z 05010KT 07/M03 A3023 RMK A01 T00721025  RH  050%=      5-min Rain = 0
KFL1 251120Z 05010KT 07/M02 A3023 RMK A01 T00731023  RH  050%=      5-min Rain = 0
KFL1 251121Z 05010KT 07/M03 A3023 RMK A01 T00731025  RH  050%=      5-min Rain = 0
KFL1 251122Z 05009KT 07/M03 A3023 RMK A01 T00741025  RH  049%=      5-min Rain = 0
KFL1 251123Z 05009KT 07/M03 A3023 RMK A01 T00741027  RH  049%=      5-min Rain = 0
KFL1 251124Z 05010KT 08/M03 A3023 RMK A01 T00751026  RH  049%=      5-min Rain = 0
KFL1 251125Z 05010KT 08/M03 A3023 RMK A01 T00751027  RH  048%=      5-min Rain = 0
KFL1 251126Z 05010KT 08/M03 A3023 RMK A01 T00771027  RH  048%=      5-min Rain = 0
KFL1 251127Z 04010KT 08/M03 A3023 RMK A01 T00791028  RH  047%=      5-min Rain = 0
KFL1 251128Z 05010KT 08/M03 A3023 RMK A01 T00801028  RH  046%=      5-min Rain = 0
KFL1 251129Z 05009KT 08/M03 A3023 RMK A01 T00801029  RH  046%=      5-min Rain = 0
KFL1 251130Z 05009KT 08/M03 A3023 RMK A01 T00811028  RH  046%=      5-min Rain = 0
KFL1 251131Z 05009KT 08/M03 A3023 RMK A01 T00811028  RH  046%=      5-min Rain = 0
KFL1 251132Z 05010KT 08/M03 A3023 RMK A01 T00821029  RH  045%=      5-min Rain = 0
KFL1 251133Z 05010KT 08/M03 A3023 RMK A01 T00821029  RH  045%=      5-min Rain = 0
KFL1 251134Z 05010KT 08/M03 A3023 RMK A01 T00831029  RH  045%=      5-min Rain = 0
KFL1 251135Z 05009KT 08/M03 A3023 RMK A01 T00841028  RH  045%=      5-min Rain = 0
KFL1 251136Z 04009KT 08/M03 A3023 RMK A01 T00831030  RH  045%=      5-min Rain = 0
KFL1 251137Z 04009KT 09/M03 A3023 RMK A01 T00851029  RH  045%=      5-min Rain = 0
KFL1 251138Z 04009KT 08/M03 A3023 RMK A01 T00841031  RH  044%=      5-min Rain = 0
KFL1 251139Z 03008KT 09/M03 A3023 RMK A01 T00861030  RH  044%=      5-min Rain = 0
KFL1 251140Z 04009KT 09/M03 A3023 RMK A01 T00871030  RH  044%=      5-min Rain = 0
KFL1 251141Z 04008KT 09/M03 A3023 RMK A01 T00881029  RH  044%=      5-min Rain = 0
KFL1 251142Z 04010KT 09/M03 A3023 RMK A01 T00871030  RH  044%=      5-min Rain = 0
KFL1 251143Z 04009KT 09/M03 A3023 RMK A01 T00881029  RH  044%=      5-min Rain = 0
KFL1 251144Z 04010KT 09/M03 A3023 RMK A01 T00881029  RH  044%=      5-min Rain = 0
KFL1 251145Z 04009KT 09/M03 A3023 RMK A01 T00871029  RH  044%=      5-min Rain = 0
KFL1 251146Z 04008KT 09/M03 A3023 RMK A01 T00861030  RH  044%=      5-min Rain = 0
KFL1 251147Z 03009KT 09/M03 A3023 RMK A01 T00871029  RH  044%=      5-min Rain = 0
KFL1 251148Z 03009KT 09/M03 A3023 RMK A01 T00871029  RH  044%=      5-min Rain = 0
KFL1 251149Z 03008KT 09/M03 A3023 RMK A01 T00871029  RH  044%=      5-min Rain = 0
KFL1 251150Z 04010KT 09/M03 A3023 RMK A01 T00871029  RH  044%=      5-min Rain = 0
KFL1 251151Z 04009KT 09/M03 A3023 RMK A01 T00871030  RH  044%=      5-min Rain = 0
KFL1 251152Z 04009KT 09/M03 A3023 RMK A01 T00871028  RH  044%=      5-min Rain = 0
KFL1 251153Z 04009KT 09/M03 A3023 RMK A01 T00861029  RH  044%=      5-min Rain = 0
KFL1 251154Z 04008KT 09/M03 A3023 RMK A01 T00851029  RH  045%=      5-min Rain = 0
KFL1 251155Z 04009KT 08/M03 A3023 RMK A01 T00841027  RH  045%=      5-min Rain = 0
KFL1 251156Z 04009KT 08/M03 A3023 RMK A01 T00841025  RH  046%=      5-min Rain = 0
KFL1 251157Z 04010KT 08/M03 A3023 RMK A01 T00821026  RH  046%=      5-min Rain = 0
KFL1 251158Z 04009KT 08/M03 A3023 RMK A01 T00811027  RH  046%=      5-min Rain = 0
KFL1 251159Z 04011KT 08/M03 A3023 RMK A01 T00821026  RH  046%=      5-min Rain = 0
KFL1 251200Z 03010KT 08/M03 A3024 RMK A01 T00811027  RH  046%=      5-min Rain = 0
KFL1 251201Z 03010KT 08/M03 A3024 RMK A01 T00821027  RH  046%=      5-min Rain = 0
KFL1 251202Z 03009KT 08/M03 A3024 RMK A01 T00831028  RH  046%=      5-min Rain = 0
KFL1 251203Z 03009KT 08/M03 A3024 RMK A01 T00841028  RH  045%=      5-min Rain = 0
KFL1 251204Z 03008KT 08/M03 A3024 RMK A01 T00841029  RH  045%=      5-min Rain = 0
KFL1 251205Z 04009KT 09/M03 A3024 RMK A01 T00851029  RH  045%=      5-min Rain = 0
KFL1 251206Z 04009KT 09/M03 A3024 RMK A01 T00871029  RH  044%=      5-min Rain = 0
KFL1 251207Z 03008KT 09/M03 A3024 RMK A01 T00871029  RH  044%=      5-min Rain = 0
KFL1 251208Z 03008KT 09/M03 A3024 RMK A01 T00871030  RH  044%=      5-min Rain = 0
KFL1 251209Z 04008KT 09/M03 A3024 RMK A01 T00891029  RH  043%=      5-min Rain = 0
KFL1 251210Z 03009KT 09/M03 A3024 RMK A01 T00891031  RH  043%=      5-min Rain = 0
KFL1 251211Z 04008KT 09/M03 A3024 RMK A01 T00891030  RH  043%=      5-min Rain = 0
KFL1 251212Z 04008KT 09/M03 A3024 RMK A01 T00891030  RH  043%=      5-min Rain = 0
KFL1 251213Z 03008KT 09/M03 A3024 RMK A01 T00901030  RH  043%=      5-min Rain = 0
KFL1 251214Z 04008KT 09/M03 A3024 RMK A01 T00901029  RH  043%=      5-min Rain = 0
KFL1 251215Z 04008KT 09/M03 A3024 RMK A01 T00901027  RH  044%=      5-min Rain = 0
KFL1 251216Z 04008KT 09/M03 A3024 RMK A01 T00901027  RH  044%=      5-min Rain = 0
KFL1 251217Z 04008KT 09/M03 A3024 RMK A01 T00901026  RH  044%=      5-min Rain = 0
KFL1 251218Z 04008KT 09/M03 A3025 RMK A01 T00891026  RH  044%=      5-min Rain = 0
KFL1 251219Z 03008KT 09/M03 A3025 RMK A01 T00881026  RH  044%=      5-min Rain = 0
KFL1 251220Z 03009KT 09/M02 A3025 RMK A01 T00901023  RH  045%=      5-min Rain = 0
KFL1 251221Z 03008KT 09/M03 A3025 RMK A01 T00891025  RH  045%=      5-min Rain = 0
KFL1 251222Z 04008KT 09/M02 A3025 RMK A01 T00891024  RH  045%=      5-min Rain = 0
KFL1 251223Z 04008KT 09/M02 A3025 RMK A01 T00891024  RH  045%=      5-min Rain = 0
KFL1 251224Z 04007KT 09/M02 A3025 RMK A01 T00881023  RH  046%=      5-min Rain = 0
KFL1 251225Z 04008KT 09/M02 A3025 RMK A01 T00891021  RH  046%=      5-min Rain = 0
KFL1 251226Z 04009KT 09/M02 A3025 RMK A01 T00881021  RH  046%=      5-min Rain = 0
KFL1 251227Z 05009KT 09/M02 A3025 RMK A01 T00871022  RH  047%=      5-min Rain = 0
KFL1 251228Z 05010KT 09/M02 A3025 RMK A01 T00851022  RH  047%=      5-min Rain = 0
KFL1 251229Z 05010KT 09/M02 A3025 RMK A01 T00871021  RH  047%=      5-min Rain = 0
KFL1 251230Z 05009KT 09/M02 A3025 RMK A01 T00861022  RH  047%=      5-min Rain = 0
KFL1 251231Z 04009KT 09/M02 A3025 RMK A01 T00881021  RH  047%=      5-min Rain = 0
KFL1 251232Z 04009KT 09/M02 A3025 RMK A01 T00871022  RH  046%=      5-min Rain = 0
KFL1 251233Z 04010KT 09/M02 A3025 RMK A01 T00871021  RH  047%=      5-min Rain = 0
KFL1 251234Z 04008KT 09/M02 A3025 RMK A01 T00871022  RH  046%=      5-min Rain = 0
KFL1 251235Z 04009KT 09/M02 A3025 RMK A01 T00881021  RH  046%=      5-min Rain = 0
KFL1 251236Z 04008KT 09/M02 A3025 RMK A01 T00881021  RH  046%=      5-min Rain = 0
KFL1 251237Z 04009KT 09/M02 A3025 RMK A01 T00881021  RH  046%=      5-min Rain = 0
KFL1 251238Z 04009KT 09/M02 A3025 RMK A01 T00891021  RH  046%=      5-min Rain = 0
KFL1 251239Z 04009KT 09/M02 A3025 RMK A01 T00901020  RH  046%=      5-min Rain = 0
KFL1 251240Z 04009KT 09/M02 A3025 RMK A01 T00901020  RH  046%=      5-min Rain = 0
KFL1 251241Z 04009KT 09/M02 A3025 RMK A01 T00901020  RH  046%=      5-min Rain = 0
KFL1 251242Z 04009KT 09/M02 A3025 RMK A01 T00911020  RH  046%=      5-min Rain = 0
KFL1 251243Z 04009KT 09/M02 A3025 RMK A01 T00921019  RH  046%=      5-min Rain = 0
KFL1 251244Z 03009KT 09/M02 A3025 RMK A01 T00921019  RH  046%=      5-min Rain = 0
KFL1 251245Z 04010KT 09/M02 A3025 RMK A01 T00931018  RH  046%=      5-min Rain = 0
KFL1 251246Z 03009KT 09/M02 A3025 RMK A01 T00941018  RH  046%=      5-min Rain = 0
KFL1 251247Z 04009KT 09/M02 A3025 RMK A01 T00931019  RH  045%=      5-min Rain = 0
KFL1 251248Z 04009KT 09/M02 A3025 RMK A01 T00941017  RH  046%=      5-min Rain = 0
KFL1 251249Z 04009KT 09/M02 A3025 RMK A01 T00941017  RH  046%=      5-min Rain = 0
KFL1 251250Z 04009KT 10/M02 A3025 RMK A01 T00961016  RH  046%=      5-min Rain = 0
KFL1 251251Z 03008KT 10/M02 A3025 RMK A01 T00971016  RH  045%=      5-min Rain = 0
KFL1 251252Z 03008KT 10/M02 A3025 RMK A01 T00981015  RH  045%=      5-min Rain = 0
KFL1 251253Z 03008KT 10/M01 A3025 RMK A01 T00991014  RH  045%=      5-min Rain = 0
KFL1 251254Z 03007KT 10/M01 A3025 RMK A01 T01011014  RH  045%=      5-min Rain = 0
KFL1 251255Z 04008KT 10/M01 A3025 RMK A01 T01021014  RH  044%=      5-min Rain = 0
KFL1 251256Z 03007KT 10/M01 A3025 RMK A01 T01041013  RH  044%=      5-min Rain = 0
KFL1 251257Z 04007KT 11/M01 A3025 RMK A01 T01061012  RH  044%=      5-min Rain = 0
KFL1 251258Z 04006KT 11/M01 A3025 RMK A01 T01061011  RH  044%=      5-min Rain = 0
KFL1 251259Z 05007KT 11/M01 A3025 RMK A01 T01081006  RH  045%=      5-min Rain = 0
KFL1 251300Z 04007KT 11/M01 A3025 RMK A01 T01081005  RH  045%=      5-min Rain = 0
KFL1 251301Z 04008KT 11/M00 A3025 RMK A01 T01101004  RH  045%=      5-min Rain = 0
KFL1 251302Z 04007KT 11/M01 A3025 RMK A01 T01081006  RH  045%=      5-min Rain = 0
KFL1 251303Z 04006KT 11/M01 A3025 RMK A01 T01071007  RH  045%=      5-min Rain = 0
KFL1 251304Z 04007KT 11/M01 A3025 RMK A01 T01081006  RH  045%=      5-min Rain = 0
KFL1 251305Z 04006KT 11/M01 A3026 RMK A01 T01081005  RH  045%=      5-min Rain = 0
KFL1 251306Z 05006KT 11/M01 A3026 RMK A01 T01091005  RH  045%=      5-min Rain = 0
KFL1 251307Z 05005KT 11/M00 A3026 RMK A01 T01111002  RH  046%=      5-min Rain = 0
KFL1 251308Z 04007KT 11/M00 A3026 RMK A01 T01111001  RH  046%=      5-min Rain = 0
KFL1 251309Z 04007KT 11/00 A3026 RMK A01 T011200-0  RH  046%=      5-min Rain = 0
KFL1 251310Z 05006KT 11/M00 A3026 RMK A01 T01121002  RH  045%=      5-min Rain = 0
KFL1 251311Z 04006KT 11/M00 A3026 RMK A01 T01131001  RH  045%=      5-min Rain = 0
KFL1 251312Z 04005KT 11/M00 A3026 RMK A01 T01121003  RH  045%=      5-min Rain = 0
KFL1 251313Z 04006KT 12/00 A3026 RMK A01 T011500-0  RH  045%=      5-min Rain = 0
KFL1 251314Z 05006KT 12/00 A3026 RMK A01 T01160000  RH  045%=      5-min Rain = 0
KFL1 251315Z 05006KT 12/00 A3026 RMK A01 T01170001  RH  045%=      5-min Rain = 0
KFL1 251316Z 04005KT 12/00 A3026 RMK A01 T01180002  RH  045%=      5-min Rain = 0
KFL1 251317Z 04006KT 12/00 A3026 RMK A01 T01180002  RH  045%=      5-min Rain = 0
KFL1 251318Z 04006KT 12/00 A3026 RMK A01 T01190001  RH  044%=      5-min Rain = 0
KFL1 251319Z 04006KT 12/00 A3026 RMK A01 T01200002  RH  044%=      5-min Rain = 0
KFL1 251320Z 05006KT 12/00 A3026 RMK A01 T01210004  RH  045%=      5-min Rain = 0
KFL1 251321Z 05006KT 12/01 A3026 RMK A01 T01220006  RH  045%=      5-min Rain = 0
KFL1 251322Z 04005KT 12/01 A3026 RMK A01 T01220005  RH  044%=      5-min Rain = 0
KFL1 251323Z 05006KT 12/01 A3026 RMK A01 T01230006  RH  045%=      5-min Rain = 0
KFL1 251324Z 04006KT 13/01 A3026 RMK A01 T01250008  RH  045%=      5-min Rain = 0
KFL1 251325Z 04006KT 13/01 A3026 RMK A01 T01250005  RH  044%=      5-min Rain = 0
KFL1 251326Z 04007KT 13/01 A3026 RMK A01 T01270005  RH  043%=      5-min Rain = 0
KFL1 251327Z 04008KT 13/01 A3026 RMK A01 T01260005  RH  043%=      5-min Rain = 0
KFL1 251328Z 04006KT 13/00 A3026 RMK A01 T01270004  RH  043%=      5-min Rain = 0
KFL1 251329Z 03006KT 13/00 A3026 RMK A01 T01270004  RH  043%=      5-min Rain = 0
KFL1 251330Z 04005KT 13/01 A3026 RMK A01 T01280006  RH  043%=      5-min Rain = 0
KFL1 251331Z 04006KT 13/01 A3026 RMK A01 T01300009  RH  043%=      5-min Rain = 0
KFL1 251332Z 03005KT 13/01 A3026 RMK A01 T01310010  RH  044%=      5-min Rain = 0
KFL1 251333Z 03006KT 13/01 A3026 RMK A01 T01330011  RH  043%=      5-min Rain = 0
KFL1 251334Z 03005KT 13/01 A3026 RMK A01 T01330008  RH  042%=      5-min Rain = 0
KFL1 251335Z 04005KT 14/01 A3026 RMK A01 T01370014  RH  043%=      5-min Rain = 0
KFL1 251336Z 04005KT 14/01 A3026 RMK A01 T01370013  RH  043%=      5-min Rain = 0
KFL1 251337Z 04005KT 14/02 A3026 RMK A01 T01390018  RH  044%=      5-min Rain = 0
KFL1 251338Z 04005KT 14/02 A3027 RMK A01 T01400017  RH  043%=      5-min Rain = 0
KFL1 251339Z 04006KT 14/02 A3027 RMK A01 T01410016  RH  043%=      5-min Rain = 0
KFL1 251340Z 04005KT 14/02 A3027 RMK A01 T01430017  RH  042%=      5-min Rain = 0
KFL1 251341Z 04005KT 14/02 A3027 RMK A01 T01430022  RH  044%=      5-min Rain = 0
KFL1 251342Z 04005KT 14/02 A3027 RMK A01 T01440024  RH  044%=      5-min Rain = 0
KFL1 251343Z 04005KT 15/02 A3027 RMK A01 T01450021  RH  043%=      5-min Rain = 0
KFL1 251344Z 03005KT 15/02 A3027 RMK A01 T01450017  RH  042%=      5-min Rain = 0
KFL1 251345Z 04004KT 14/02 A3027 RMK A01 T01440018  RH  042%=      5-min Rain = 0
KFL1 251346Z 03005KT 15/02 A3027 RMK A01 T01470022  RH  043%=      5-min Rain = 0
KFL1 251347Z 03004KT 15/02 A3027 RMK A01 T01480021  RH  042%=      5-min Rain = 0
KFL1 251348Z 04005KT 15/02 A3027 RMK A01 T01500023  RH  042%=      5-min Rain = 0
KFL1 251349Z 03005KT 15/02 A3027 RMK A01 T01510022  RH  042%=      5-min Rain = 0
KFL1 251350Z 04005KT 15/02 A3027 RMK A01 T01530024  RH  042%=      5-min Rain = 0
KFL1 251351Z 04005KT 15/02 A3027 RMK A01 T01530023  RH  041%=      5-min Rain = 0
KFL1 251352Z 04005KT 15/03 A3027 RMK A01 T01540025  RH  042%=      5-min Rain = 0
KFL1 251353Z 04005KT 16/03 A3027 RMK A01 T01570028  RH  042%=      5-min Rain = 0
KFL1 251354Z 03005KT 16/03 A3027 RMK A01 T01560026  RH  042%=      5-min Rain = 0
KFL1 251355Z 04005KT 16/03 A3027 RMK A01 T01570028  RH  042%=      5-min Rain = 0
KFL1 251356Z 03004KT 16/03 A3027 RMK A01 T01580025  RH  041%=      5-min Rain = 0
KFL1 251357Z 04004KT 16/03 A3027 RMK A01 T01600027  RH  041%=      5-min Rain = 0
KFL1 251358Z 04005KT 16/02 A3027 RMK A01 T01610024  RH  040%=      5-min Rain = 0
KFL1 251359Z 03004KT 16/02 A3027 RMK A01 T01620023  RH  039%=      5-min Rain = 0
KFL1 251400Z 04004KT 16/02 A3027 RMK A01 T01620024  RH  040%=      5-min Rain = 0
KFL1 251401Z 04006KT 16/02 A3027 RMK A01 T01620022  RH  039%=      5-min Rain = 0
KFL1 251402Z 04004KT 16/02 A3027 RMK A01 T01630024  RH  039%=      5-min Rain = 0
KFL1 251403Z 04005KT 16/03 A3027 RMK A01 T01640029  RH  040%=      5-min Rain = 0
KFL1 251404Z 05004KT 17/03 A3027 RMK A01 T01670030  RH  040%=      5-min Rain = 0
KFL1 251405Z 04004KT 17/03 A3027 RMK A01 T01680028  RH  039%=      5-min Rain = 0
KFL1 251406Z 05004KT 17/03 A3027 RMK A01 T01700025  RH  038%=      5-min Rain = 0
KFL1 251407Z 04005KT 17/03 A3027 RMK A01 T01710025  RH  038%=      5-min Rain = 0
KFL1 251408Z 05005KT 17/02 A3027 RMK A01 T01730021  RH  036%=      5-min Rain = 0
KFL1 251409Z 05004KT 17/03 A3027 RMK A01 T01740030  RH  038%=      5-min Rain = 0
KFL1 251410Z 04005KT 17/03 A3027 RMK A01 T01730030  RH  038%=      5-min Rain = 0
KFL1 251411Z 04006KT 17/03 A3027 RMK A01 T01740026  RH  037%=      5-min Rain = 0
KFL1 251412Z 04005KT 17/03 A3027 RMK A01 T01730025  RH  037%=      5-min Rain = 0
KFL1 251413Z 05004KT 17/03 A3027 RMK A01 T01740029  RH  038%=      5-min Rain = 0
KFL1 251414Z 04005KT 18/03 A3027 RMK A01 T01760029  RH  038%=      5-min Rain = 0
KFL1 251415Z 04005KT 18/03 A3027 RMK A01 T01760026  RH  037%=      5-min Rain = 0
KFL1 251416Z 04004KT 18/03 A3027 RMK A01 T01790029  RH  037%=      5-min Rain = 0
KFL1 251417Z 04003KT 18/02 A3027 RMK A01 T01790023  RH  035%=      5-min Rain = 0
KFL1 251418Z 06003KT 18/03 A3027 RMK A01 T01810028  RH  036%=      5-min Rain = 0
KFL1 251419Z 06004KT 18/03 A3027 RMK A01 T01820031  RH  036%=      5-min Rain = 0
KFL1 251420Z 05004KT 18/02 A3027 RMK A01 T01820023  RH  034%=      5-min Rain = 0
KFL1 251421Z 05004KT 18/03 A3027 RMK A01 T01830029  RH  036%=      5-min Rain = 0
KFL1 251422Z 05004KT 19/02 A3027 RMK A01 T01850024  RH  034%=      5-min Rain = 0
KFL1 251423Z 06004KT 19/02 A3027 RMK A01 T01850024  RH  034%=      5-min Rain = 0
KFL1 251424Z 06002KT 19/02 A3027 RMK A01 T01860023  RH  034%=      5-min Rain = 0
KFL1 251425Z 06004KT 19/02 A3027 RMK A01 T01870021  RH  033%=      5-min Rain = 0
KFL1 251426Z 05004KT 19/02 A3027 RMK A01 T01870022  RH  033%=      5-min Rain = 0
KFL1 251427Z 06003KT 19/02 A3027 RMK A01 T01870023  RH  034%=      5-min Rain = 0
KFL1 251428Z 05004KT 19/02 A3027 RMK A01 T01860019  RH  033%=      5-min Rain = 0
KFL1 251429Z 07004KT 19/02 A3027 RMK A01 T01870021  RH  033%=      5-min Rain = 0
KFL1 251430Z 07002KT 19/01 A3027 RMK A01 T01880014  RH  031%=      5-min Rain = 0
KFL1 251431Z 07003KT 19/01 A3027 RMK A01 T01880014  RH  031%=      5-min Rain = 0
KFL1 251432Z 07003KT 19/02 A3027 RMK A01 T01880019  RH  032%=      5-min Rain = 0
KFL1 251433Z 06002KT 19/02 A3027 RMK A01 T01910021  RH  032%=      5-min Rain = 0
KFL1 251434Z 07003KT 19/02 A3027 RMK A01 T01900021  RH  032%=      5-min Rain = 0
KFL1 251435Z 07004KT 19/02 A3028 RMK A01 T01920021  RH  032%=      5-min Rain = 0
KFL1 251436Z 07003KT 19/00 A3028 RMK A01 T01930004  RH  028%=      5-min Rain = 0
KFL1 251437Z 08004KT 19/01 A3028 RMK A01 T01930007  RH  029%=      5-min Rain = 0
KFL1 251438Z 10003KT 19/02 A3028 RMK A01 T01930019  RH  031%=      5-min Rain = 0
KFL1 251439Z 09005KT 19/02 A3028 RMK A01 T01940017  RH  031%=      5-min Rain = 0
KFL1 251440Z 09004KT 20/00 A3028 RMK A01 T01950004  RH  028%=      5-min Rain = 0
KFL1 251441Z 10004KT 19/01 A3028 RMK A01 T01940013  RH  030%=      5-min Rain = 0
KFL1 251442Z 09003KT 20/M01 A3028 RMK A01 T01951008  RH  025%=      5-min Rain = 0
KFL1 251443Z 11004KT 19/01 A3028 RMK A01 T01940006  RH  028%=      5-min Rain = 0
KFL1 251444Z 09004KT 20/M00 A3028 RMK A01 T01961003  RH  026%=      5-min Rain = 0
KFL1 251445Z 09006KT 20/M00 A3028 RMK A01 T01961002  RH  027%=      5-min Rain = 0
KFL1 251446Z 07005KT 20/M00 A3028 RMK A01 T01961002  RH  026%=      5-min Rain = 0
KFL1 251447Z 06004KT 20/M01 A3028 RMK A01 T01971007  RH  025%=      5-min Rain = 0
KFL1 251448Z 08003KT 20/01 A3028 RMK A01 T01970006  RH  028%=      5-min Rain = 0
KFL1 251449Z 09003KT 20/01 A3028 RMK A01 T01990007  RH  028%=      5-min Rain = 0
KFL1 251450Z 09003KT 20/00 A3028 RMK A01 T01980004  RH  027%=      5-min Rain = 0
KFL1 251451Z 09005KT 20/M00 A3028 RMK A01 T01981002  RH  026%=      5-min Rain = 0
KFL1 251452Z 07004KT 20/M01 A3028 RMK A01 T01991005  RH  025%=      5-min Rain = 0
KFL1 251453Z 07003KT 20/M01 A3028 RMK A01 T01981011  RH  025%=      5-min Rain = 0
KFL1 251454Z 08005KT 20/M01 A3028 RMK A01 T01971010  RH  025%=      5-min Rain = 0
KFL1 251455Z 08005KT 20/M01 A3028 RMK A01 T01971007  RH  025%=      5-min Rain = 0
KFL1 251456Z 08005KT 20/01 A3028 RMK A01 T01960008  RH  028%=      5-min Rain = 0
KFL1 251457Z 08004KT 20/01 A3028 RMK A01 T01960006  RH  028%=      5-min Rain = 0
KFL1 251458Z 09006KT 20/01 A3028 RMK A01 T01980009  RH  028%=      5-min Rain = 0
KFL1 251459Z 10005KT 20/01 A3028 RMK A01 T02000005  RH  027%=      5-min Rain = 0
KFL1 251500Z 11004KT 20/01 A3028 RMK A01 T02010010  RH  028%=      5-min Rain = 0
KFL1 251501Z 08004KT 20/01 A3028 RMK A01 T02020008  RH  027%=      5-min Rain = 0
KFL1 251502Z 07004KT 20/01 A3028 RMK A01 T02030011  RH  028%=      5-min Rain = 0
KFL1 251503Z 09004KT 21/M00 A3028 RMK A01 T02051004  RH  025%=      5-min Rain = 0
KFL1 251504Z 07005KT 20/M01 A3028 RMK A01 T02041009  RH  024%=      5-min Rain = 0
KFL1 251505Z 07005KT 20/00 A3028 RMK A01 T02020002  RH  026%=      5-min Rain = 0
KFL1 251506Z 09005KT 20/00 A3028 RMK A01 T02010002  RH  026%=      5-min Rain = 0
KFL1 251507Z 09005KT 20/00 A3028 RMK A01 T02020003  RH  026%=      5-min Rain = 0
KFL1 251508Z 11004KT 20/M01 A3028 RMK A01 T02021008  RH  024%=      5-min Rain = 0
KFL1 251509Z 09003KT 20/M01 A3028 RMK A01 T02031005  RH  025%=      5-min Rain = 0
KFL1 251510Z 08006KT 20/M01 A3028 RMK A01 T02031010  RH  024%=      5-min Rain = 0
KFL1 251511Z 09006KT 20/M02 A3028 RMK A01 T02021017  RH  023%=      5-min Rain = 0
KFL1 251512Z 09005KT 20/M01 A3028 RMK A01 T02001012  RH  024%=      5-min Rain = 0
KFL1 251513Z 08005KT 20/M01 A3028 RMK A01 T02011005  RH  025%=      5-min Rain = 0
KFL1 251514Z 08003KT 20/01 A3028 RMK A01 T02020013  RH  028%=      5-min Rain = 0
KFL1 251515Z 07004KT 20/02 A3028 RMK A01 T02030017  RH  029%=      5-min Rain = 0
KFL1 251516Z 08003KT 20/02 A3028 RMK A01 T02030022  RH  030%=      5-min Rain = 0
KFL1 251517Z 06004KT 21/00 A3028 RMK A01 T02060002  RH  026%=      5-min Rain = 0
KFL1 251518Z 07005KT 21/00 A3028 RMK A01 T02050003  RH  026%=      5-min Rain = 0
KFL1 251519Z 07005KT 21/01 A3028 RMK A01 T02060012  RH  027%=      5-min Rain = 0
KFL1 251520Z 07004KT 21/00 A3028 RMK A01 T02060003  RH  026%=      5-min Rain = 0
KFL1 251521Z 07003KT 21/00 A3028 RMK A01 T02060000  RH  025%=      5-min Rain = 0
KFL1 251522Z 06002KT 21/M01 A3028 RMK A01 T02061006  RH  024%=      5-min Rain = 0
KFL1 251523Z 07005KT 21/01 A3028 RMK A01 T02060008  RH  027%=      5-min Rain = 0
KFL1 251524Z 08008KT 21/M01 A3028 RMK A01 T02061007  RH  024%=      5-min Rain = 0
KFL1 251525Z 08006KT 21/M01 A3028 RMK A01 T02051013  RH  023%=      5-min Rain = 0
KFL1 251526Z 07004KT 20/M00 A3028 RMK A01 T02041004  RH  025%=      5-min Rain = 0
KFL1 251527Z 07005KT 21/00 A3028 RMK A01 T02060001  RH  025%=      5-min Rain = 0
KFL1 251528Z 07007KT 21/M00 A3028 RMK A01 T02061003  RH  025%=      5-min Rain = 0
KFL1 251529Z 09007KT 21/M00 A3028 RMK A01 T02071004  RH  024%=      5-min Rain = 0
KFL1 251530Z 09005KT 21/M01 A3028 RMK A01 T02071007  RH  024%=      5-min Rain = 0
KFL1 251531Z 06005KT 21/00 A3028 RMK A01 T02060002  RH  026%=      5-min Rain = 0
KFL1 251532Z 05005KT 21/00 A3028 RMK A01 T02070004  RH  026%=      5-min Rain = 0
KFL1 251533Z 07005KT 21/01 A3028 RMK A01 T02080012  RH  027%=      5-min Rain = 0
KFL1 251534Z 08004KT 21/01 A3028 RMK A01 T02070009  RH  027%=      5-min Rain = 0
KFL1 251535Z 08002KT 21/03 A3028 RMK A01 T02100025  RH  029%=      5-min Rain = 0
KFL1 251536Z 07005KT 21/01 A3028 RMK A01 T02100005  RH  025%=      5-min Rain = 0
KFL1 251537Z 06004KT 21/01 A3028 RMK A01 T02120005  RH  025%=      5-min Rain = 0
KFL1 251538Z 06004KT 21/00 A3028 RMK A01 T02120001  RH  025%=      5-min Rain = 0
KFL1 251539Z 08005KT 21/02 A3028 RMK A01 T02120018  RH  028%=      5-min Rain = 0
KFL1 251540Z 10005KT 21/02 A3028 RMK A01 T02120017  RH  028%=      5-min Rain = 0
KFL1 251541Z 09004KT 21/01 A3028 RMK A01 T02140010  RH  026%=      5-min Rain = 0
KFL1 251542Z 07003KT 22/01 A3028 RMK A01 T02160006  RH  025%=      5-min Rain = 0
KFL1 251543Z 08006KT 22/01 A3028 RMK A01 T02160006  RH  025%=      5-min Rain = 0
KFL1 251544Z 08008KT 21/01 A3028 RMK A01 T02140008  RH  025%=      5-min Rain = 0
KFL1 251545Z 08007KT 21/02 A3028 RMK A01 T02130017  RH  027%=      5-min Rain = 0
KFL1 251546Z 07004KT 21/M01 A3028 RMK A01 T02131006  RH  023%=      5-min Rain = 0
KFL1 251547Z 07006KT 21/00 A3028 RMK A01 T02130002  RH  025%=      5-min Rain = 0
KFL1 251548Z 07007KT 21/01 A3028 RMK A01 T02120005  RH  025%=      5-min Rain = 0
KFL1 251549Z 06004KT 21/M01 A3028 RMK A01 T02111006  RH  023%=      5-min Rain = 0
KFL1 251550Z 06004KT 21/00 A3028 RMK A01 T02110002  RH  025%=      5-min Rain = 0
KFL1 251551Z 06003KT 21/00 A3028 RMK A01 T02110003  RH  025%=      5-min Rain = 0
KFL1 251552Z 08005KT 21/01 A3028 RMK A01 T02110013  RH  027%=      5-min Rain = 0
KFL1 251553Z 08004KT 21/01 A3028 RMK A01 T02120006  RH  025%=      5-min Rain = 0
KFL1 251554Z 09003KT 21/01 A3028 RMK A01 T02100012  RH  027%=      5-min Rain = 0
KFL1 251555Z 07003KT 21/01 A3028 RMK A01 T02110010  RH  026%=      5-min Rain = 0
KFL1 251556Z 08004KT 21/01 A3028 RMK A01 T02120013  RH  027%=      5-min Rain = 0
KFL1 251557Z 09005KT 21/00 A3028 RMK A01 T02140001  RH  024%=      5-min Rain = 0
KFL1 251558Z 10006KT 21/M00 A3028 RMK A01 T02131003  RH  024%=      5-min Rain = 0
KFL1 251559Z 09007KT 21/01 A3028 RMK A01 T02130006  RH  025%=      5-min Rain = 0
KFL1 251600Z 10007KT 21/01 A3028 RMK A01 T02140010  RH  026%=      5-min Rain = 0
KFL1 251601Z 12005KT 22/M00 A3028 RMK A01 T02151004  RH  023%=      5-min Rain = 0
KFL1 251602Z 12005KT 21/M01 A3028 RMK A01 T02131008  RH  023%=      5-min Rain = 0
KFL1 251603Z 12004KT 21/M00 A3028 RMK A01 T02121003  RH  024%=      5-min Rain = 0
KFL1 251604Z 13004KT 21/M01 A3028 RMK A01 T02121006  RH  023%=      5-min Rain = 0
KFL1 251605Z 12004KT 21/M01 A3028 RMK A01 T02111012  RH  022%=      5-min Rain = 0
KFL1 251606Z 12005KT 21/01 A3028 RMK A01 T02110005  RH  025%=      5-min Rain = 0
KFL1 251607Z 09005KT 21/01 A3028 RMK A01 T02120006  RH  025%=      5-min Rain = 0
KFL1 251608Z 09004KT 21/00 A3028 RMK A01 T02130003  RH  025%=      5-min Rain = 0
KFL1 251609Z 08004KT 21/01 A3028 RMK A01 T02130012  RH  026%=      5-min Rain = 0
KFL1 251610Z 09004KT 21/01 A3028 RMK A01 T02140010  RH  026%=      5-min Rain = 0
KFL1 251611Z 12005KT 22/01 A3028 RMK A01 T02170014  RH  026%=      5-min Rain = 0
KFL1 251612Z 10006KT 22/01 A3028 RMK A01 T02180011  RH  025%=      5-min Rain = 0
KFL1 251613Z 09004KT 22/01 A3028 RMK A01 T02180011  RH  025%=      5-min Rain = 0
KFL1 251614Z 11003KT 22/01 A3028 RMK A01 T02190012  RH  025%=      5-min Rain = 0
KFL1 251615Z 10004KT 22/00 A3028 RMK A01 T02190003  RH  024%=      5-min Rain = 0
KFL1 251616Z 09004KT 22/02 A3028 RMK A01 T02180016  RH  026%=      5-min Rain = 0
KFL1 251617Z 09006KT 22/02 A3028 RMK A01 T02180022  RH  027%=      5-min Rain = 0
KFL1 251618Z 08005KT 22/01 A3028 RMK A01 T02180005  RH  024%=      5-min Rain = 0
KFL1 251619Z 06003KT 22/00 A3028 RMK A01 T02150001  RH  024%=      5-min Rain = 0
KFL1 251620Z 08005KT 22/02 A3028 RMK A01 T02150015  RH  027%=      5-min Rain = 0
KFL1 251621Z 07004KT 22/01 A3028 RMK A01 T02180013  RH  026%=      5-min Rain = 0
KFL1 251622Z 12003KT 22/01 A3028 RMK A01 T02180010  RH  025%=      5-min Rain = 0
KFL1 251623Z 12004KT 22/01 A3028 RMK A01 T02190008  RH  025%=      5-min Rain = 0
KFL1 251624Z 11005KT 22/M00 A3028 RMK A01 T02211003  RH  023%=      5-min Rain = 0
KFL1 251625Z 10004KT 22/M01 A3028 RMK A01 T02201005  RH  022%=      5-min Rain = 0
KFL1 251626Z 13004KT 22/M00 A3028 RMK A01 T02181003  RH  023%=      5-min Rain = 0
KFL1 251627Z 12003KT 22/00 A3028 RMK A01 T02170000  RH  024%=      5-min Rain = 0
KFL1 251628Z 11004KT 22/00 A3028 RMK A01 T02180002  RH  024%=      5-min Rain = 0
KFL1 251629Z 09003KT 22/M00 A3028 RMK A01 T02181004  RH  023%=      5-min Rain = 0
KFL1 251630Z 08004KT 22/M00 A3028 RMK A01 T02171004  RH  023%=      5-min Rain = 0
KFL1 251631Z 08004KT 22/00 A3028 RMK A01 T02160000  RH  024%=      5-min Rain = 0
KFL1 251632Z 10004KT 22/M00 A3028 RMK A01 T02171001  RH  023%=      5-min Rain = 0
KFL1 251633Z 11004KT 22/03 A3028 RMK A01 T02180030  RH  029%=      5-min Rain = 0
KFL1 251634Z 14003KT 22/00 A3028 RMK A01 T02200004  RH  024%=      5-min Rain = 0
KFL1 251635Z 09005KT 22/00 A3028 RMK A01 T022300-0  RH  023%=      5-min Rain = 0
KFL1 251636Z 09006KT 22/01 A3029 RMK A01 T02230012  RH  025%=      5-min Rain = 0
KFL1 251637Z 11006KT 23/01 A3029 RMK A01 T02250007  RH  024%=      5-min Rain = 0
KFL1 251638Z 10007KT 23/M00 A3029 RMK A01 T02251001  RH  022%=      5-min Rain = 0
KFL1 251639Z 09007KT 22/02 A3029 RMK A01 T02240017  RH  026%=      5-min Rain = 0
KFL1 251640Z 11006KT 22/01 A3029 RMK A01 T02230011  RH  025%=      5-min Rain = 0
KFL1 251641Z 10007KT 22/01 A3029 RMK A01 T02230006  RH  024%=      5-min Rain = 0
KFL1 251642Z 10006KT 22/02 A3029 RMK A01 T02220015  RH  025%=      5-min Rain = 0
KFL1 251643Z 08004KT 22/00 A3029 RMK A01 T02220003  RH  023%=      5-min Rain = 0
KFL1 251644Z 04004KT 22/M01 A3029 RMK A01 T02201011  RH  021%=      5-min Rain = 0
KFL1 251645Z 09004KT 22/00 A3029 RMK A01 T02190001  RH  024%=      5-min Rain = 0
KFL1 251646Z 08004KT 22/00 A3029 RMK A01 T02200004  RH  024%=      5-min Rain = 0
KFL1 251647Z 07004KT 22/M00 A3029 RMK A01 T02221001  RH  023%=      5-min Rain = 0
KFL1 251648Z 09006KT 22/00 A3029 RMK A01 T02220004  RH  023%=      5-min Rain = 0
KFL1 251649Z 08006KT 22/01 A3029 RMK A01 T02220005  RH  024%=      5-min Rain = 0
KFL1 251650Z 06005KT 22/02 A3029 RMK A01 T02220016  RH  026%=      5-min Rain = 0
KFL1 251651Z 07006KT 22/02 A3029 RMK A01 T02220024  RH  027%=      5-min Rain = 0
KFL1 251652Z 06006KT 22/01 A3029 RMK A01 T02240005  RH  023%=      5-min Rain = 0
KFL1 251653Z 05005KT 22/01 A3029 RMK A01 T02230011  RH  025%=      5-min Rain = 0
KFL1 251654Z 07003KT 22/02 A3029 RMK A01 T02230023  RH  027%=      5-min Rain = 0
KFL1 251655Z 10003KT 23/03 A3029 RMK A01 T02270026  RH  027%=      5-min Rain = 0
KFL1 251656Z 12005KT 23/02 A3029 RMK A01 T02290021  RH  026%=      5-min Rain = 0
KFL1 251657Z 12006KT 23/01 A3029 RMK A01 T02310010  RH  023%=      5-min Rain = 0
KFL1 251658Z 11005KT 23/01 A3029 RMK A01 T02310007  RH  023%=      5-min Rain = 0
KFL1 251659Z 11004KT 23/M01 A3029 RMK A01 T02301007  RH  021%=      5-min Rain = 0
KFL1 251700Z 09003KT 23/01 A3029 RMK A01 T02290007  RH  023%=      5-min Rain = 0
KFL1 251701Z 13003KT 23/01 A3029 RMK A01 T02290008  RH  023%=      5-min Rain = 0
KFL1 251702Z 12006KT 23/01 A3029 RMK A01 T02300007  RH  023%=      5-min Rain = 0
KFL1 251703Z 12005KT 23/00 A3029 RMK A01 T02290003  RH  022%=      5-min Rain = 0
KFL1 251704Z 14002KT 23/M01 A3029 RMK A01 T02261006  RH  021%=      5-min Rain = 0
KFL1 251705Z 06002KT 23/M02 A3029 RMK A01 T02251017  RH  020%=      5-min Rain = 0
KFL1 251706Z 10002KT 22/M01 A3029 RMK A01 T02231006  RH  022%=      5-min Rain = 0
KFL1 251707Z 10005KT 22/01 A3029 RMK A01 T02230010  RH  024%=      5-min Rain = 0
KFL1 251708Z 10005KT 22/01 A3029 RMK A01 T02230007  RH  024%=      5-min Rain = 0
KFL1 251709Z 13004KT 22/M01 A3029 RMK A01 T02211012  RH  021%=      5-min Rain = 0
KFL1 251710Z 12003KT 22/M01 A3029 RMK A01 T02201010  RH  022%=      5-min Rain = 0
KFL1 251711Z 12004KT 22/01 A3029 RMK A01 T02230010  RH  025%=      5-min Rain = 0
KFL1 251712Z 12004KT 22/01 A3029 RMK A01 T02240005  RH  023%=      5-min Rain = 0
KFL1 251713Z 12005KT 23/M00 A3029 RMK A01 T02261003  RH  022%=      5-min Rain = 0
KFL1 251714Z 13003KT 23/M01 A3029 RMK A01 T02251009  RH  021%=      5-min Rain = 0
KFL1 251715Z 17002KT 23/00 A3029 RMK A01 T02260003  RH  023%=      5-min Rain = 0
KFL1 251716Z 24002KT 23/M01 A3029 RMK A01 T02261005  RH  021%=      5-min Rain = 0
KFL1 251717Z 24002KT 23/02 A3029 RMK A01 T02270016  RH  025%=      5-min Rain = 0
KFL1 251718Z 24004KT 23/02 A3029 RMK A01 T02300016  RH  024%=      5-min Rain = 0
KFL1 251719Z 24002KT 23/01 A3029 RMK A01 T02320013  RH  024%=      5-min Rain = 0
KFL1 251720Z 21001KT 23/00 A3029 RMK A01 T02330000  RH  021%=      5-min Rain = 0
KFL1 251721Z 14002KT 23/01 A3029 RMK A01 T02330008  RH  023%=      5-min Rain = 0
KFL1 251722Z 14004KT 23/00 A3029 RMK A01 T02340003  RH  022%=      5-min Rain = 0
KFL1 251723Z 12004KT 24/M00 A3029 RMK A01 T02351003  RH  021%=      5-min Rain = 0
KFL1 251724Z 11005KT 23/02 A3029 RMK A01 T02340020  RH  025%=      5-min Rain = 0
KFL1 251725Z 12004KT 24/00 A3029 RMK A01 T02350004  RH  022%=      5-min Rain = 0
KFL1 251726Z 11003KT 24/M00 A3029 RMK A01 T02351004  RH  020%=      5-min Rain = 0
KFL1 251727Z 09002KT 23/M01 A3029 RMK A01 T02341006  RH  020%=      5-min Rain = 0
KFL1 251728Z 14002KT 23/M01 A3029 RMK A01 T02331009  RH  020%=      5-min Rain = 0
KFL1 251729Z 07002KT 23/M01 A3029 RMK A01 T02311011  RH  020%=      5-min Rain = 0
KFL1 251730Z 08003KT 23/00 A3029 RMK A01 T02300001  RH  022%=      5-min Rain = 0
KFL1 251731Z 07001KT 23/00 A3029 RMK A01 T02300000  RH  022%=      5-min Rain = 0
KFL1 251732Z 06002KT 23/00 A3029 RMK A01 T02310004  RH  022%=      5-min Rain = 0
KFL1 251733Z 03002KT 23/00 A3029 RMK A01 T02310003  RH  022%=      5-min Rain = 0
KFL1 251734Z 06002KT 23/00 A3029 RMK A01 T02330002  RH  022%=      5-min Rain = 0
KFL1 251735Z 10004KT 23/01 A3029 RMK A01 T02320005  RH  022%=      5-min Rain = 0
KFL1 251736Z 08005KT 23/02 A3029 RMK A01 T02320017  RH  024%=      5-min Rain = 0
KFL1 251737Z 07004KT 23/M01 A3029 RMK A01 T02321006  RH  021%=      5-min Rain = 0
KFL1 251738Z 10003KT 23/01 A3029 RMK A01 T02330009  RH  023%=      5-min Rain = 0
KFL1 251739Z 16006KT 23/01 A3029 RMK A01 T02320005  RH  022%=      5-min Rain = 0
KFL1 251740Z 18005KT 23/M00 A3029 RMK A01 T02311003  RH  021%=      5-min Rain = 0
KFL1 251741Z 17005KT 23/00 A3029 RMK A01 T02310002  RH  022%=      5-min Rain = 0
KFL1 251742Z 17005KT 23/00 A3029 RMK A01 T02310004  RH  022%=      5-min Rain = 0
KFL1 251743Z 18004KT 23/01 A3029 RMK A01 T02310013  RH  024%=      5-min Rain = 0
KFL1 251744Z 19004KT 23/01 A3029 RMK A01 T02300008  RH  023%=      5-min Rain = 0
KFL1 251745Z 20004KT 23/01 A3029 RMK A01 T02320009  RH  023%=      5-min Rain = 0
KFL1 251746Z 20004KT 23/00 A3029 RMK A01 T023100-0  RH  022%=      5-min Rain = 0
KFL1 251747Z 19005KT 23/00 A3029 RMK A01 T02280002  RH  022%=      5-min Rain = 0
KFL1 251748Z 19004KT 23/01 A3029 RMK A01 T02250010  RH  024%=      5-min Rain = 0
KFL1 251749Z 20003KT 22/01 A3029 RMK A01 T02210007  RH  024%=      5-min Rain = 0
KFL1 251750Z 19003KT 22/01 A3029 RMK A01 T02220008  RH  024%=      5-min Rain = 0
KFL1 251751Z 19003KT 22/00 A3029 RMK A01 T02200002  RH  023%=      5-min Rain = 0
KFL1 251752Z 17004KT 22/00 A3029 RMK A01 T02230001  RH  023%=      5-min Rain = 0
KFL1 251753Z 16003KT 23/M00 A3029 RMK A01 T02251004  RH  022%=      5-min Rain = 0
KFL1 251754Z 16002KT 23/M01 A3029 RMK A01 T02281009  RH  021%=      5-min Rain = 0
KFL1 251755Z 21002KT 23/M01 A3029 RMK A01 T02301012  RH  020%=      5-min Rain = 0
KFL1 251756Z 27002KT 23/M02 A3029 RMK A01 T02311021  RH  019%=      5-min Rain = 0
KFL1 251757Z 27001KT 23/M02 A3029 RMK A01 T02311024  RH  018%=      5-min Rain = 0
KFL1 251758Z 19000KT 23/M02 A3029 RMK A01 T02311023  RH  018%=      5-min Rain = 0
KFL1 251759Z 17002KT 23/M00 A3029 RMK A01 T02331002  RH  021%=      5-min Rain = 0
KFL1 251800Z 16003KT 23/M01 A3029 RMK A01 T02341011  RH  020%=      5-min Rain = 0
KFL1 251801Z 14004KT 24/M01 A3029 RMK A01 T02351006  RH  020%=      5-min Rain = 0
KFL1 251802Z 12002KT 24/M03 A3029 RMK A01 T02361025  RH  017%=      5-min Rain = 0
KFL1 251803Z 08002KT 23/M02 A3029 RMK A01 T02341020  RH  018%=      5-min Rain = 0
KFL1 251804Z 35001KT 24/M01 A3029 RMK A01 T02351010  RH  020%=      5-min Rain = 0
KFL1 251805Z 35001KT 24/M02 A3028 RMK A01 T02361018  RH  018%=      5-min Rain = 0
KFL1 251806Z 05002KT 24/M02 A3028 RMK A01 T02361018  RH  018%=      5-min Rain = 0
KFL1 251807Z 11002KT 24/M01 A3028 RMK A01 T02361013  RH  019%=      5-min Rain = 0
KFL1 251808Z 12002KT 24/M01 A3028 RMK A01 T02361014  RH  019%=      5-min Rain = 0
KFL1 251809Z 19002KT 24/M03 A3028 RMK A01 T02361027  RH  017%=      5-min Rain = 0
KFL1 251810Z 25002KT 23/M03 A3028 RMK A01 T02311033  RH  017%=      5-min Rain = 0
KFL1 251811Z 17002KT 23/00 A3028 RMK A01 T02300003  RH  022%=      5-min Rain = 0
KFL1 251812Z 13004KT 24/M01 A3028 RMK A01 T02351007  RH  020%=      5-min Rain = 0
KFL1 251813Z 18004KT 24/M00 A3028 RMK A01 T02351002  RH  021%=      5-min Rain = 0
KFL1 251814Z 18003KT 24/01 A3028 RMK A01 T02390010  RH  022%=      5-min Rain = 0
KFL1 251815Z 17005KT 24/02 A3028 RMK A01 T02430017  RH  023%=      5-min Rain = 0
KFL1 251816Z 20007KT 25/02 A3028 RMK A01 T02480016  RH  022%=      5-min Rain = 0
KFL1 251817Z 20005KT 25/M00 A3028 RMK A01 T02491002  RH  019%=      5-min Rain = 0
KFL1 251818Z 21004KT 25/M00 A3028 RMK A01 T02491002  RH  019%=      5-min Rain = 0
KFL1 251819Z 21002KT 25/M01 A3028 RMK A01 T02471008  RH  018%=      5-min Rain = 0
KFL1 251820Z 24002KT 25/M01 A3028 RMK A01 T02461011  RH  018%=      5-min Rain = 0
KFL1 251821Z 24002KT 25/M03 A3028 RMK A01 T02461033  RH  016%=      5-min Rain = 0
KFL1 251822Z 26003KT 24/M03 A3028 RMK A01 T02411032  RH  016%=      5-min Rain = 0
KFL1 251823Z 27003KT 24/M03 A3028 RMK A01 T02361034  RH  016%=      5-min Rain = 0
KFL1 251824Z 28001KT 23/M03 A3028 RMK A01 T02341033  RH  017%=      5-min Rain = 0
KFL1 251825Z 15001KT 23/M04 A3028 RMK A01 T02331043  RH  016%=      5-min Rain = 0
KFL1 251826Z 13001KT 23/M03 A3028 RMK A01 T02321030  RH  017%=      5-min Rain = 0
KFL1 251827Z 05001KT 23/M02 A3028 RMK A01 T02331020  RH  019%=      5-min Rain = 0
KFL1 251828Z 04003KT 24/M01 A3028 RMK A01 T02351014  RH  019%=      5-min Rain = 0
KFL1 251829Z 26001KT 24/00 A3028 RMK A01 T02390001  RH  021%=      5-min Rain = 0
KFL1 251830Z 25003KT 24/00 A3028 RMK A01 T02430002  RH  020%=      5-min Rain = 0
KFL1 251831Z 23002KT 24/01 A3028 RMK A01 T02440005  RH  021%=      5-min Rain = 0
KFL1 251832Z 25004KT 25/01 A3028 RMK A01 T02450011  RH  022%=      5-min Rain = 0
KFL1 251833Z 22006KT 25/01 A3028 RMK A01 T02480012  RH  021%=      5-min Rain = 0
KFL1 251834Z 22004KT 25/M01 A3028 RMK A01 T02501009  RH  018%=      5-min Rain = 0
KFL1 251835Z 22005KT 25/01 A3028 RMK A01 T02500005  RH  020%=      5-min Rain = 0
KFL1 251836Z 22007KT 25/01 A3028 RMK A01 T02510007  RH  020%=      5-min Rain = 0
KFL1 251837Z 20004KT 25/M01 A3028 RMK A01 T02511008  RH  018%=      5-min Rain = 0
KFL1 251838Z 17003KT 25/M01 A3028 RMK A01 T02491007  RH  018%=      5-min Rain = 0
KFL1 251839Z 11003KT 25/M03 A3028 RMK A01 T02491031  RH  016%=      5-min Rain = 0
KFL1 251840Z 09002KT 25/M02 A3028 RMK A01 T02461024  RH  017%=      5-min Rain = 0
KFL1 251841Z 17003KT 25/M01 A3028 RMK A01 T02451007  RH  019%=      5-min Rain = 0
KFL1 251842Z 17005KT 25/01 A3028 RMK A01 T02470005  RH  020%=      5-min Rain = 0
KFL1 251843Z 20005KT 25/01 A3028 RMK A01 T02490007  RH  020%=      5-min Rain = 0
KFL1 251844Z 21007KT 25/01 A3028 RMK A01 T02540013  RH  021%=      5-min Rain = 0
KFL1 251845Z 22007KT 26/01 A3028 RMK A01 T02560008  RH  020%=      5-min Rain = 0
KFL1 251846Z 23007KT 26/00 A3028 RMK A01 T02550004  RH  019%=      5-min Rain = 0
KFL1 251847Z 23004KT 26/01 A3028 RMK A01 T02550013  RH  021%=      5-min Rain = 0
KFL1 251848Z 24004KT 25/01 A3028 RMK A01 T02530005  RH  020%=      5-min Rain = 0
KFL1 251849Z 22003KT 25/M01 A3028 RMK A01 T02541012  RH  017%=      5-min Rain = 0
KFL1 251850Z 22002KT 25/M02 A3028 RMK A01 T02501019  RH  017%=      5-min Rain = 0
KFL1 251851Z 22004KT 25/M01 A3028 RMK A01 T02481010  RH  018%=      5-min Rain = 0
KFL1 251852Z 21003KT 25/M01 A3028 RMK A01 T02481011  RH  018%=      5-min Rain = 0
KFL1 251853Z 23001KT 25/M01 A3028 RMK A01 T02481011  RH  018%=      5-min Rain = 0
KFL1 251854Z 20001KT 25/M03 A3028 RMK A01 T02471030  RH  016%=      5-min Rain = 0
KFL1 251855Z 34001KT 25/M02 A3028 RMK A01 T02461016  RH  018%=      5-min Rain = 0
KFL1 251856Z 00002KT 25/M02 A3028 RMK A01 T02461016  RH  018%=      5-min Rain = 0
KFL1 251857Z 30000KT 25/M03 A3028 RMK A01 T02461028  RH  016%=      5-min Rain = 0
KFL1 251858Z 02000KT 24/M02 A3028 RMK A01 T02431023  RH  017%=      5-min Rain = 0
KFL1 251859Z 05001KT 24/M02 A3027 RMK A01 T02441017  RH  018%=      5-min Rain = 0
KFL1 251900Z 33001KT 24/00 A3027 RMK A01 T02440003  RH  020%=      5-min Rain = 0
KFL1 251901Z 30005KT 25/02 A3027 RMK A01 T02460016  RH  022%=      5-min Rain = 0
KFL1 251902Z 28003KT 25/01 A3027 RMK A01 T02470009  RH  021%=      5-min Rain = 0
KFL1 251903Z 26002KT 25/00 A3027 RMK A01 T024900-0  RH  019%=      5-min Rain = 0
KFL1 251904Z 24002KT 25/M01 A3027 RMK A01 T02491011  RH  018%=      5-min Rain = 0
KFL1 251905Z 24003KT 25/M00 A3027 RMK A01 T02491004  RH  019%=      5-min Rain = 0
KFL1 251906Z 24003KT 25/02 A3027 RMK A01 T02480015  RH  022%=      5-min Rain = 0
KFL1 251907Z 23005KT 25/03 A3027 RMK A01 T02500031  RH  024%=      5-min Rain = 0
KFL1 251908Z 21005KT 25/01 A3027 RMK A01 T02520005  RH  020%=      5-min Rain = 0
KFL1 251909Z 23005KT 25/00 A3027 RMK A01 T02510004  RH  020%=      5-min Rain = 0
KFL1 251910Z 17006KT 25/01 A3027 RMK A01 T02490012  RH  021%=      5-min Rain = 0
KFL1 251911Z 18004KT 25/02 A3027 RMK A01 T02530024  RH  023%=      5-min Rain = 0
KFL1 251912Z 22004G9KT 26/01 A3027 RMK A01 T02550012  RH  020%=      5-min Rain = 0
KFL1 251913Z 20008KT 25/M01 A3027 RMK A01 T02541006  RH  018%=      5-min Rain = 0
KFL1 251914Z 20005KT 25/M01 A3027 RMK A01 T02491009  RH  018%=      5-min Rain = 0
KFL1 251915Z 20004KT 25/M01 A3028 RMK A01 T02491007  RH  018%=      5-min Rain = 0
KFL1 251916Z 20001KT 25/M02 A3027 RMK A01 T02461015  RH  018%=      5-min Rain = 0
KFL1 251917Z 20002KT 25/M03 A3027 RMK A01 T02481026  RH  016%=      5-min Rain = 0
KFL1 251918Z 22004KT 25/M03 A3027 RMK A01 T02461028  RH  016%=      5-min Rain = 0
KFL1 251919Z 25003KT 24/M00 A3027 RMK A01 T02441003  RH  020%=      5-min Rain = 0
KFL1 251920Z 27004KT 25/02 A3027 RMK A01 T02450024  RH  024%=      5-min Rain = 0
KFL1 251921Z 27008G14KT 25/03 A3027 RMK A01 T02460028  RH  024%=      5-min Rain = 0
KFL1 251922Z 28009KT 25/01 A3027 RMK A01 T02470006  RH  021%=      5-min Rain = 0
KFL1 251923Z 29006KT 24/M02 A3027 RMK A01 T02431021  RH  017%=      5-min Rain = 0
KFL1 251924Z 28003KT 24/M01 A3027 RMK A01 T02421005  RH  020%=      5-min Rain = 0
KFL1 251925Z 30004KT 24/M01 A3027 RMK A01 T02421006  RH  019%=      5-min Rain = 0
KFL1 251926Z 32004KT 25/M00 A3027 RMK A01 T02451004  RH  019%=      5-min Rain = 0
KFL1 251927Z 33004KT 25/M01 A3027 RMK A01 T02461007  RH  019%=      5-min Rain = 0
KFL1 251928Z 35003KT 25/M03 A3027 RMK A01 T02461032  RH  016%=      5-min Rain = 0
KFL1 251929Z 35004KT 24/M03 A3027 RMK A01 T02411027  RH  017%=      5-min Rain = 0
KFL1 251930Z 00003KT 24/M01 A3027 RMK A01 T02401014  RH  019%=      5-min Rain = 0
KFL1 251931Z 00004KT 24/M02 A3027 RMK A01 T02401018  RH  018%=      5-min Rain = 0
KFL1 251932Z 35002KT 24/M00 A3027 RMK A01 T02411001  RH  020%=      5-min Rain = 0
KFL1 251933Z 34002KT 24/01 A3027 RMK A01 T02440009  RH  021%=      5-min Rain = 0
KFL1 251934Z 27003KT 25/02 A3027 RMK A01 T02490015  RH  022%=      5-min Rain = 0
KFL1 251935Z 30002KT 26/02 A3027 RMK A01 T02550019  RH  021%=      5-min Rain = 0
KFL1 251936Z 17002KT 26/M01 A3027 RMK A01 T02581007  RH  017%=      5-min Rain = 0
KFL1 251937Z 14003KT 26/M01 A3027 RMK A01 T02571014  RH  017%=      5-min Rain = 0
KFL1 251938Z 15002KT 26/M01 A3027 RMK A01 T02571009  RH  017%=      5-min Rain = 0
KFL1 251939Z 18007KT 26/00 A3027 RMK A01 T02580002  RH  019%=      5-min Rain = 0
KFL1 251940Z 20006KT 26/02 A3027 RMK A01 T02590020  RH  021%=      5-min Rain = 0
KFL1 251941Z 17003KT 26/00 A3027 RMK A01 T02630000  RH  018%=      5-min Rain = 0
KFL1 251942Z 15003KT 27/00 A3027 RMK A01 T026500-0  RH  018%=      5-min Rain = 0
KFL1 251943Z 14004KT 26/M01 A3027 RMK A01 T02641012  RH  016%=      5-min Rain = 0
KFL1 251944Z 15004KT 26/M01 A3027 RMK A01 T02591011  RH  017%=      5-min Rain = 0
KFL1 251945Z 14006KT 26/M00 A3027 RMK A01 T02571001  RH  018%=      5-min Rain = 0
KFL1 251946Z 15007KT 26/M00 A3026 RMK A01 T02571002  RH  018%=      5-min Rain = 0
KFL1 251947Z 15008KT 26/00 A3026 RMK A01 T02590001  RH  018%=      5-min Rain = 0
KFL1 251948Z 16004KT 26/M02 A3026 RMK A01 T02561017  RH  017%=      5-min Rain = 0
KFL1 251949Z 16003KT 25/M01 A3026 RMK A01 T02541011  RH  017%=      5-min Rain = 0
KFL1 251950Z 18006KT 26/02 A3026 RMK A01 T02550022  RH  022%=      5-min Rain = 0
KFL1 251951Z 19009KT 26/01 A3026 RMK A01 T02610013  RH  020%=      5-min Rain = 0
KFL1 251952Z 17007KT 26/01 A3026 RMK A01 T02640006  RH  019%=      5-min Rain = 0
KFL1 251953Z 18007KT 27/M00 A3026 RMK A01 T02661001  RH  017%=      5-min Rain = 0
KFL1 251954Z 21004KT 27/00 A3026 RMK A01 T02670001  RH  018%=      5-min Rain = 0
KFL1 251955Z 25005KT 26/M01 A3026 RMK A01 T02641006  RH  017%=      5-min Rain = 0
KFL1 251956Z 27005KT 26/00 A3026 RMK A01 T02620001  RH  018%=      5-min Rain = 0
KFL1 251957Z 28006KT 26/M00 A3026 RMK A01 T02621001  RH  018%=      5-min Rain = 0
KFL1 251958Z 24004KT 26/01 A3026 RMK A01 T02600005  RH  019%=      5-min Rain = 0
KFL1 251959Z 24005KT 26/03 A3026 RMK A01 T02630030  RH  022%=      5-min Rain = 0
KFL1 252000Z 21003KT 26/01 A3026 RMK A01 T02640011  RH  019%=      5-min Rain = 0
KFL1 252001Z 20004KT 27/M01 A3026 RMK A01 T02651006  RH  017%=      5-min Rain = 0
KFL1 252002Z 21007KT 26/M01 A3026 RMK A01 T02641007  RH  017%=      5-min Rain = 0
KFL1 252003Z 22007KT 26/M00 A3026 RMK A01 T02621004  RH  018%=      5-min Rain = 0
KFL1 252004Z 23006KT 26/M01 A3026 RMK A01 T02591012  RH  017%=      5-min Rain = 0
KFL1 252005Z 23004KT 25/M01 A3026 RMK A01 T02541012  RH  017%=      5-min Rain = 0
KFL1 252006Z 21005KT 25/M01 A3026 RMK A01 T02521013  RH  017%=      5-min Rain = 0
KFL1 252007Z 24004KT 25/M02 A3026 RMK A01 T02481016  RH  017%=      5-min Rain = 0
KFL1 252008Z 27002KT 25/M00 A3026 RMK A01 T02491003  RH  019%=      5-min Rain = 0
KFL1 252009Z 22003KT 25/00 A3026 RMK A01 T02480003  RH  020%=      5-min Rain = 0
KFL1 252010Z 22003KT 25/M02 A3026 RMK A01 T02501020  RH  017%=      5-min Rain = 0
KFL1 252011Z 26002KT 25/M02 A3026 RMK A01 T02491022  RH  017%=      5-min Rain = 0
KFL1 252012Z 28003KT 25/M00 A3026 RMK A01 T02501004  RH  019%=      5-min Rain = 0
KFL1 252013Z 23003KT 25/01 A3026 RMK A01 T02540006  RH  020%=      5-min Rain = 0
KFL1 252014Z 23005KT 26/M01 A3026 RMK A01 T02561007  RH  018%=      5-min Rain = 0
KFL1 252015Z 24003KT 25/M01 A3026 RMK A01 T02531014  RH  017%=      5-min Rain = 0
KFL1 252016Z 22002KT 25/M03 A3026 RMK A01 T02511030  RH  015%=      5-min Rain = 0
KFL1 252017Z 23002KT 25/M04 A3026 RMK A01 T02481038  RH  015%=      5-min Rain = 0
KFL1 252018Z 21008KT 25/M01 A3026 RMK A01 T02481013  RH  018%=      5-min Rain = 0
KFL1 252019Z 22008KT 25/M01 A3026 RMK A01 T02501007  RH  018%=      5-min Rain = 0
KFL1 252020Z 22008G13KT 25/01 A3026 RMK A01 T02520006  RH  020%=      5-min Rain = 0
KFL1 252021Z 23010KT 25/01 A3026 RMK A01 T02540006  RH  020%=      5-min Rain = 0
KFL1 252022Z 22009G14KT 26/02 A3026 RMK A01 T02560021  RH  022%=      5-min Rain = 0
KFL1 252023Z 22009KT 26/02 A3026 RMK A01 T02580019  RH  021%=      5-min Rain = 0
KFL1 252024Z 24009KT 26/01 A3026 RMK A01 T02610007  RH  019%=      5-min Rain = 0
KFL1 252025Z 26007KT 26/01 A3026 RMK A01 T02610012  RH  020%=      5-min Rain = 0
KFL1 252026Z 24006KT 26/03 A3025 RMK A01 T02640027  RH  022%=      5-min Rain = 0
KFL1 252027Z 21007KT 27/M01 A3025 RMK A01 T02661012  RH  016%=      5-min Rain = 0
KFL1 252028Z 24006KT 26/M01 A3025 RMK A01 T02641008  RH  017%=      5-min Rain = 0
KFL1 252029Z 27007KT 26/M00 A3026 RMK A01 T02631004  RH  017%=      5-min Rain = 0
KFL1 252030Z 30005KT 26/M02 A3025 RMK A01 T02621017  RH  016%=      5-min Rain = 0
KFL1 252031Z 30003KT 26/M00 A3025 RMK A01 T02621003  RH  018%=      5-min Rain = 0
KFL1 252032Z 04001KT 26/M03 A3025 RMK A01 T02611025  RH  015%=      5-min Rain = 0
KFL1 252033Z 11002KT 26/M03 A3025 RMK A01 T02611026  RH  015%=      5-min Rain = 0
KFL1 252034Z 15002KT 26/M00 A3025 RMK A01 T02621002  RH  018%=      5-min Rain = 0
KFL1 252035Z 24004KT 27/01 A3025 RMK A01 T02680006  RH  018%=      5-min Rain = 0
KFL1 252036Z 23006KT 27/M00 A3025 RMK A01 T02671004  RH  017%=      5-min Rain = 0
KFL1 252037Z 24007KT 27/01 A3025 RMK A01 T02680012  RH  019%=      5-min Rain = 0
KFL1 252038Z 23006KT 27/M01 A3025 RMK A01 T02681010  RH  016%=      5-min Rain = 0
KFL1 252039Z 23006KT 27/M02 A3025 RMK A01 T02651015  RH  016%=      5-min Rain = 0
KFL1 252040Z 23005KT 27/M00 A3025 RMK A01 T02651002  RH  017%=      5-min Rain = 0
KFL1 252041Z 25006KT 27/M01 A3025 RMK A01 T02651006  RH  017%=      5-min Rain = 0
KFL1 252042Z 26004KT 27/M00 A3025 RMK A01 T02661003  RH  017%=      5-min Rain = 0
KFL1 252043Z 25006KT 27/M01 A3025 RMK A01 T02661006  RH  017%=      5-min Rain = 0
KFL1 252044Z 25007KT 27/M01 A3025 RMK A01 T02661014  RH  016%=      5-min Rain = 0
KFL1 252045Z 25005KT 26/M02 A3025 RMK A01 T02611017  RH  016%=      5-min Rain = 0
KFL1 252046Z 25007KT 26/00 A3025 RMK A01 T02600003  RH  019%=      5-min Rain = 0
KFL1 252047Z 23005KT 26/M01 A3025 RMK A01 T02591009  RH  017%=      5-min Rain = 0
KFL1 252048Z 22005KT 26/M02 A3025 RMK A01 T02581020  RH  016%=      5-min Rain = 0
KFL1 252049Z 20004KT 26/M02 A3025 RMK A01 T02581022  RH  016%=      5-min Rain = 0
KFL1 252050Z 10004KT 26/00 A3025 RMK A01 T02620002  RH  018%=      5-min Rain = 0
KFL1 252051Z 12005KT 27/00 A3025 RMK A01 T02660001  RH  018%=      5-min Rain = 0
KFL1 252052Z 13007G12KT 27/M01 A3025 RMK A01 T02651006  RH  017%=      5-min Rain = 0
KFL1 252053Z 14010KT 26/M00 A3025 RMK A01 T02631003  RH  018%=      5-min Rain = 0
KFL1 252054Z 10007KT 26/M02 A3025 RMK A01 T02581017  RH  016%=      5-min Rain = 0
KFL1 252055Z 08005KT 26/M02 A3025 RMK A01 T02551021  RH  016%=      5-min Rain = 0
KFL1 252056Z 11003KT 25/M02 A3025 RMK A01 T02521015  RH  017%=      5-min Rain = 0
KFL1 252057Z 11004KT 25/M01 A3025 RMK A01 T02531010  RH  018%=      5-min Rain = 0
KFL1 252058Z 17002KT 25/M02 A3025 RMK A01 T02531019  RH  017%=      5-min Rain = 0
KFL1 252059Z 14001KT 25/M02 A3025 RMK A01 T02521020  RH  016%=      5-min Rain = 0
KFL1 252100Z 12002KT 25/00 A3025 RMK A01 T02540001  RH  019%=      5-min Rain = 0
KFL1 252101Z 17006KT 26/M02 A3025 RMK A01 T02581017  RH  016%=      5-min Rain = 0
KFL1 252102Z 14005KT 26/M02 A3025 RMK A01 T02581024  RH  015%=      5-min Rain = 0
KFL1 252103Z 14003KT 26/M01 A3025 RMK A01 T02571012  RH  017%=      5-min Rain = 0
KFL1 252104Z 14003KT 26/M02 A3025 RMK A01 T02581015  RH  016%=      5-min Rain = 0
KFL1 252105Z 14004KT 26/M03 A3024 RMK A01 T02601025  RH  015%=      5-min Rain = 0
KFL1 252106Z 13002KT 26/M04 A3024 RMK A01 T02581037  RH  014%=      5-min Rain = 0
KFL1 252107Z 18001KT 26/M01 A3024 RMK A01 T02571010  RH  017%=      5-min Rain = 0
KFL1 252108Z 17002KT 26/M02 A3024 RMK A01 T02591017  RH  016%=      5-min Rain = 0
KFL1 252109Z 17004KT 26/M01 A3024 RMK A01 T02591005  RH  018%=      5-min Rain = 0
KFL1 252110Z 18004KT 26/02 A3024 RMK A01 T02610022  RH  021%=      5-min Rain = 0
KFL1 252111Z 22005KT 27/01 A3024 RMK A01 T02680012  RH  019%=      5-min Rain = 0
KFL1 252112Z 22007KT 27/01 A3024 RMK A01 T02710013  RH  019%=      5-min Rain = 0
KFL1 252113Z 24010G17KT 27/00 A3024 RMK A01 T02710001  RH  017%=      5-min Rain = 0
KFL1 252114Z 23008KT 27/M02 A3024 RMK A01 T02671017  RH  015%=      5-min Rain = 0
KFL1 252115Z 25005KT 27/M01 A3024 RMK A01 T02651010  RH  016%=      5-min Rain = 0
KFL1 252116Z 21005G11KT 26/01 A3024 RMK A01 T02640006  RH  019%=      5-min Rain = 0
KFL1 252117Z 23007KT 27/M01 A3024 RMK A01 T02651012  RH  016%=      5-min Rain = 0
KFL1 252118Z 24008KT 26/M01 A3024 RMK A01 T02641013  RH  016%=      5-min Rain = 0
KFL1 252119Z 25006KT 26/M02 A3024 RMK A01 T02631017  RH  016%=      5-min Rain = 0
KFL1 252120Z 25008KT 26/00 A3024 RMK A01 T026300-0  RH  018%=      5-min Rain = 0
KFL1 252121Z 25006KT 26/M01 A3024 RMK A01 T02641005  RH  017%=      5-min Rain = 0
KFL1 252122Z 28006KT 27/M02 A3024 RMK A01 T02651020  RH  015%=      5-min Rain = 0
KFL1 252123Z 25007KT 26/01 A3024 RMK A01 T02630006  RH  019%=      5-min Rain = 0
KFL1 252124Z 23004KT 27/01 A3024 RMK A01 T02660008  RH  019%=      5-min Rain = 0
KFL1 252125Z 20005KT 27/M01 A3024 RMK A01 T02661009  RH  016%=      5-min Rain = 0
KFL1 252126Z 22007KT 27/M01 A3024 RMK A01 T02681012  RH  016%=      5-min Rain = 0
KFL1 252127Z 23009KT 27/M03 A3024 RMK A01 T02671026  RH  014%=      5-min Rain = 0
KFL1 252128Z 24008KT 27/M02 A3024 RMK A01 T02651021  RH  015%=      5-min Rain = 0
KFL1 252129Z 23008KT 26/M01 A3024 RMK A01 T02641006  RH  017%=      5-min Rain = 0
KFL1 252130Z 25007KT 27/01 A3024 RMK A01 T02670014  RH  019%=      5-min Rain = 0
KFL1 252131Z 25008KT 27/00 A3023 RMK A01 T02680003  RH  018%=      5-min Rain = 0
KFL1 252132Z 25007KT 27/M02 A3024 RMK A01 T02661022  RH  015%=      5-min Rain = 0
KFL1 252133Z 23006KT 27/M01 A3023 RMK A01 T02651013  RH  016%=      5-min Rain = 0
KFL1 252134Z 21006KT 27/02 A3023 RMK A01 T02660021  RH  021%=      5-min Rain = 0
KFL1 252135Z 21007KT 27/M00 A3023 RMK A01 T02701003  RH  017%=      5-min Rain = 0
KFL1 252136Z 18007KT 27/M01 A3023 RMK A01 T02711010  RH  016%=      5-min Rain = 0
KFL1 252137Z 19009KT 27/M01 A3023 RMK A01 T02711006  RH  016%=      5-min Rain = 0
KFL1 252138Z 20007KT 28/M00 A3023 RMK A01 T02751004  RH  016%=      5-min Rain = 0
KFL1 252139Z 21010G15KT 28/00 A3023 RMK A01 T02750000  RH  017%=      5-min Rain = 0
KFL1 252140Z 20012KT 28/M01 A3023 RMK A01 T02761012  RH  015%=      5-min Rain = 0
KFL1 252141Z 21012KT 27/M02 A3023 RMK A01 T02731019  RH  015%=      5-min Rain = 0
KFL1 252142Z 22009KT 27/M03 A3023 RMK A01 T02701027  RH  014%=      5-min Rain = 0
KFL1 252143Z 20007KT 27/M01 A3023 RMK A01 T02681009  RH  016%=      5-min Rain = 0
KFL1 252144Z 20006KT 27/M01 A3023 RMK A01 T02701009  RH  016%=      5-min Rain = 0
KFL1 252145Z 19007KT 27/M01 A3023 RMK A01 T02711008  RH  016%=      5-min Rain = 0
KFL1 252146Z 21005KT 27/M03 A3023 RMK A01 T02711026  RH  014%=      5-min Rain = 0
KFL1 252147Z 24003KT 27/M02 A3023 RMK A01 T02721018  RH  015%=      5-min Rain = 0
KFL1 252148Z 25003KT 27/M00 A3023 RMK A01 T02731004  RH  016%=      5-min Rain = 0
KFL1 252149Z 23004KT 27/02 A3023 RMK A01 T02720016  RH  019%=      5-min Rain = 0
KFL1 252150Z 21005KT 27/M02 A3023 RMK A01 T02731024  RH  014%=      5-min Rain = 0
KFL1 252151Z 23004KT 27/M02 A3023 RMK A01 T02711021  RH  015%=      5-min Rain = 0
KFL1 252152Z 20006KT 27/M00 A3023 RMK A01 T02721003  RH  017%=      5-min Rain = 0
KFL1 252153Z 19006KT 27/00 A3023 RMK A01 T02730004  RH  017%=      5-min Rain = 0
KFL1 252154Z 18010KT 28/M02 A3023 RMK A01 T02751015  RH  015%=      5-min Rain = 0
KFL1 252155Z 18010KT 27/M04 A3023 RMK A01 T02711037  RH  013%=      5-min Rain = 0
KFL1 252156Z 18010KT 27/M02 A3023 RMK A01 T02671017  RH  015%=      5-min Rain = 0
KFL1 252157Z 19009KT 27/M03 A3023 RMK A01 T02671025  RH  015%=      5-min Rain = 0
KFL1 252158Z 16008KT 27/M02 A3023 RMK A01 T02661020  RH  015%=      5-min Rain = 0
KFL1 252159Z 19005KT 27/M01 A3023 RMK A01 T02671008  RH  017%=      5-min Rain = 0
KFL1 252200Z 19007KT 27/M01 A3023 RMK A01 T02681009  RH  016%=      5-min Rain = 0
KFL1 252201Z 19007KT 27/M03 A3023 RMK A01 T02701026  RH  014%=      5-min Rain = 0
KFL1 252202Z 18006KT 27/M02 A3023 RMK A01 T02691023  RH  015%=      5-min Rain = 0
KFL1 252203Z 17005KT 27/M02 A3023 RMK A01 T02691016  RH  015%=      5-min Rain = 0
KFL1 252204Z 18006KT 27/M02 A3023 RMK A01 T02711016  RH  015%=      5-min Rain = 0
KFL1 252205Z 20009KT 27/M02 A3023 RMK A01 T02711022  RH  014%=      5-min Rain = 0
KFL1 252206Z 20011KT 27/M03 A3023 RMK A01 T02701027  RH  014%=      5-min Rain = 0
KFL1 252207Z 19010KT 27/M00 A3023 RMK A01 T02701002  RH  017%=      5-min Rain = 0
KFL1 252208Z 19009KT 27/M00 A3023 RMK A01 T02721004  RH  016%=      5-min Rain = 0
KFL1 252209Z 18006KT 27/M01 A3023 RMK A01 T02731013  RH  015%=      5-min Rain = 0
KFL1 252210Z 18008KT 27/M01 A3023 RMK A01 T02731013  RH  015%=      5-min Rain = 0
KFL1 252211Z 20008KT 27/M03 A3023 RMK A01 T02711031  RH  014%=      5-min Rain = 0
KFL1 252212Z 20005KT 27/M04 A3023 RMK A01 T02671043  RH  013%=      5-min Rain = 0
KFL1 252213Z 17006KT 26/M04 A3023 RMK A01 T02641039  RH  013%=      5-min Rain = 0
KFL1 252214Z 21006KT 26/M01 A3023 RMK A01 T02611011  RH  017%=      5-min Rain = 0
KFL1 252215Z 22010KT 26/M02 A3023 RMK A01 T02591016  RH  016%=      5-min Rain = 0
KFL1 252216Z 21008KT 26/M03 A3023 RMK A01 T02591029  RH  015%=      5-min Rain = 0
KFL1 252217Z 19007KT 26/M04 A3023 RMK A01 T02571041  RH  014%=      5-min Rain = 0
KFL1 252218Z 20007KT 26/M03 A3023 RMK A01 T02591028  RH  015%=      5-min Rain = 0
KFL1 252219Z 23004KT 26/M02 A3023 RMK A01 T02631016  RH  016%=      5-min Rain = 0
KFL1 252220Z 24004KT 27/M03 A3023 RMK A01 T02661025  RH  015%=      5-min Rain = 0
KFL1 252221Z 23002KT 27/M04 A3023 RMK A01 T02661044  RH  013%=      5-min Rain = 0
KFL1 252222Z 26003KT 27/M03 A3023 RMK A01 T02661032  RH  014%=      5-min Rain = 0
KFL1 252223Z 25004KT 27/M01 A3022 RMK A01 T02671008  RH  017%=      5-min Rain = 0
KFL1 252224Z 20007KT 27/00 A3022 RMK A01 T02680003  RH  018%=      5-min Rain = 0
KFL1 252225Z 19008KT 27/M02 A3022 RMK A01 T02701018  RH  015%=      5-min Rain = 0
KFL1 252226Z 22007KT 27/M01 A3022 RMK A01 T02711013  RH  016%=      5-min Rain = 0
KFL1 252227Z 22005KT 27/M02 A3022 RMK A01 T02701021  RH  015%=      5-min Rain = 0
KFL1 252228Z 22004KT 27/M02 A3022 RMK A01 T02691021  RH  015%=      5-min Rain = 0
KFL1 252229Z 21004KT 27/M02 A3022 RMK A01 T02681015  RH  016%=      5-min Rain = 0
KFL1 252230Z 22008KT 27/01 A3022 RMK A01 T02680005  RH  018%=      5-min Rain = 0
KFL1 252231Z 21008KT 27/M01 A3022 RMK A01 T02681007  RH  017%=      5-min Rain = 0
KFL1 252232Z 21004KT 27/M02 A3022 RMK A01 T02671016  RH  016%=      5-min Rain = 0
KFL1 252233Z 22006KT 27/00 A3022 RMK A01 T02680001  RH  018%=      5-min Rain = 0
KFL1 252234Z 22005KT 27/00 A3022 RMK A01 T02680000  RH  017%=      5-min Rain = 0
KFL1 252235Z 25004KT 27/00 A3022 RMK A01 T026700-0  RH  017%=      5-min Rain = 0
KFL1 252236Z 25008KT 27/01 A3022 RMK A01 T02700014  RH  019%=      5-min Rain = 0
KFL1 252237Z 23008KT 27/01 A3022 RMK A01 T02700014  RH  019%=      5-min Rain = 0
KFL1 252238Z 24005KT 27/M01 A3022 RMK A01 T02691011  RH  016%=      5-min Rain = 0
KFL1 252239Z 24007KT 27/01 A3022 RMK A01 T02680009  RH  019%=      5-min Rain = 0
KFL1 252240Z 22006KT 27/01 A3022 RMK A01 T02680007  RH  018%=      5-min Rain = 0
KFL1 252241Z 18007KT 27/M01 A3022 RMK A01 T02671011  RH  016%=      5-min Rain = 0
KFL1 252242Z 17005KT 26/M03 A3022 RMK A01 T02641027  RH  015%=      5-min Rain = 0
KFL1 252243Z 17004KT 26/M03 A3022 RMK A01 T02641027  RH  015%=      5-min Rain = 0
KFL1 252244Z 17005KT 26/M02 A3022 RMK A01 T02631020  RH  015%=      5-min Rain = 0
KFL1 252245Z 23007KT 26/M00 A3022 RMK A01 T02621003  RH  018%=      5-min Rain = 0
KFL1 252246Z 24006KT 26/M01 A3022 RMK A01 T02611013  RH  016%=      5-min Rain = 0
KFL1 252247Z 23006KT 26/M01 A3022 RMK A01 T02611007  RH  017%=      5-min Rain = 0
KFL1 252248Z 24005KT 26/M01 A3022 RMK A01 T02621013  RH  016%=      5-min Rain = 0
KFL1 252249Z 24005KT 26/M01 A3022 RMK A01 T02601013  RH  017%=      5-min Rain = 0
KFL1 252250Z 24008KT 26/01 A3022 RMK A01 T02610005  RH  019%=      5-min Rain = 0
KFL1 252251Z 23006KT 26/M01 A3022 RMK A01 T02611007  RH  017%=      5-min Rain = 0
KFL1 252252Z 26005KT 26/M01 A3022 RMK A01 T02601010  RH  017%=      5-min Rain = 0
KFL1 252253Z 27007KT 26/M01 A3022 RMK A01 T02601009  RH  017%=      5-min Rain = 0
KFL1 252254Z 25005KT 26/M00 A3022 RMK A01 T02591002  RH  018%=      5-min Rain = 0
KFL1 252255Z 22005KT 26/M01 A3022 RMK A01 T02591014  RH  017%=      5-min Rain = 0
KFL1 252256Z 26002KT 26/M02 A3022 RMK A01 T02591017  RH  016%=      5-min Rain = 0
KFL1 252257Z 26003KT 26/M02 A3022 RMK A01 T02601016  RH  016%=      5-min Rain = 0
KFL1 252258Z 23005KT 26/M01 A3022 RMK A01 T02621005  RH  017%=      5-min Rain = 0
KFL1 252259Z 22004KT 26/M03 A3022 RMK A01 T02611031  RH  014%=      5-min Rain = 0
KFL1 252300Z 25003KT 26/M01 A3022 RMK A01 T02611014  RH  016%=      5-min Rain = 0
KFL1 252301Z 27004KT 26/M02 A3022 RMK A01 T02611020  RH  016%=      5-min Rain = 0
KFL1 252302Z 29003KT 26/00 A3022 RMK A01 T02620000  RH  018%=      5-min Rain = 0
KFL1 252303Z 24003KT 26/00 A3021 RMK A01 T02640001  RH  018%=      5-min Rain = 0
KFL1 252304Z 24004KT 26/M01 A3021 RMK A01 T02641007  RH  017%=      5-min Rain = 0
KFL1 252305Z 24002KT 27/M03 A3021 RMK A01 T02651027  RH  015%=      5-min Rain = 0
KFL1 252306Z 27003KT 26/M02 A3021 RMK A01 T02641020  RH  015%=      5-min Rain = 0
KFL1 252307Z 28002KT 26/M02 A3021 RMK A01 T02641019  RH  015%=      5-min Rain = 0
KFL1 252308Z 30002KT 27/M02 A3021 RMK A01 T02651023  RH  015%=      5-min Rain = 0
KFL1 252309Z 32001KT 26/M02 A3021 RMK A01 T02631021  RH  015%=      5-min Rain = 0
KFL1 252310Z 26001KT 26/M01 A3021 RMK A01 T02631014  RH  016%=      5-min Rain = 0
KFL1 252311Z 26001KT 26/M03 A3021 RMK A01 T02631029  RH  014%=      5-min Rain = 0
KFL1 252312Z 32000KT 26/M05 A3021 RMK A01 T02621049  RH  013%=      5-min Rain = 0
KFL1 252313Z 17000KT 26/M03 A3021 RMK A01 T02621028  RH  015%=      5-min Rain = 0
KFL1 252314Z 13002KT 26/M00 A3021 RMK A01 T02591002  RH  018%=      5-min Rain = 0
KFL1 252315Z 12003KT 26/M01 A3021 RMK A01 T02581008  RH  017%=      5-min Rain = 0
KFL1 252316Z 12002KT 26/M03 A3021 RMK A01 T02591029  RH  015%=      5-min Rain = 0
KFL1 252317Z 17001KT 26/M04 A3021 RMK A01 T02551044  RH  014%=      5-min Rain = 0
KFL1 252318Z 11000KT 25/M04 A3021 RMK A01 T02531035  RH  015%=      5-min Rain = 0
KFL1 252319Z 15004KT 25/M02 A3021 RMK A01 T02541017  RH  017%=      5-min Rain = 0
KFL1 252320Z 17003KT 26/M03 A3021 RMK A01 T02571026  RH  015%=      5-min Rain = 0
KFL1 252321Z 24001KT 26/M05 A3021 RMK A01 T02571051  RH  013%=      5-min Rain = 0
KFL1 252322Z 14001KT 26/M04 A3021 RMK A01 T02571035  RH  014%=      5-min Rain = 0
KFL1 252323Z 17003KT 26/M04 A3021 RMK A01 T02571041  RH  014%=      5-min Rain = 0
KFL1 252324Z 16003KT 26/M03 A3021 RMK A01 T02581032  RH  015%=      5-min Rain = 0
KFL1 252325Z 18002KT 26/M02 A3021 RMK A01 T02581021  RH  016%=      5-min Rain = 0
KFL1 252326Z 12003KT 26/M01 A3021 RMK A01 T02601014  RH  016%=      5-min Rain = 0
KFL1 252327Z 10003KT 26/M00 A3021 RMK A01 T02621003  RH  018%=      5-min Rain = 0
KFL1 252328Z 12004KT 26/M01 A3021 RMK A01 T02621012  RH  016%=      5-min Rain = 0
KFL1 252329Z 20003KT 26/M04 A3021 RMK A01 T02611037  RH  014%=      5-min Rain = 0
KFL1 252330Z 23003KT 26/M02 A3021 RMK A01 T02621015  RH  016%=      5-min Rain = 0
KFL1 252331Z 23006KT 26/M01 A3021 RMK A01 T02641007  RH  017%=      5-min Rain = 0
KFL1 252332Z 24003KT 26/M01 A3021 RMK A01 T02621013  RH  016%=      5-min Rain = 0
KFL1 252333Z 24001KT 26/M01 A3021 RMK A01 T02621011  RH  017%=      5-min Rain = 0
KFL1 252334Z 23002KT 27/M01 A302 RMK A01 T02661006  RH  017%=      5-min Rain = 0
KFL1 252335Z 26002KT 27/M03 A302 RMK A01 T02671026  RH  014%=      5-min Rain = 0
KFL1 252336Z 24003KT 27/M02 A302 RMK A01 T02671019  RH  015%=      5-min Rain = 0
KFL1 252337Z 22004KT 27/M03 A302 RMK A01 T02661026  RH  014%=      5-min Rain = 0
KFL1 252338Z 24002KT 27/M04 A302 RMK A01 T02661044  RH  013%=      5-min Rain = 0
KFL1 252339Z 21003KT 27/M02 A302 RMK A01 T02671020  RH  015%=      5-min Rain = 0
KFL1 252340Z 22004KT 27/M02 A302 RMK A01 T02651020  RH  015%=      5-min Rain = 0
KFL1 252341Z 26002KT 27/M04 A302 RMK A01 T02651035  RH  014%=      5-min Rain = 0
KFL1 252342Z 25002KT 27/M03 A302 RMK A01 T02671027  RH  014%=      5-min Rain = 0
KFL1 252343Z 24002KT 27/M03 A302 RMK A01 T02661028  RH  014%=      5-min Rain = 0
KFL1 252344Z 29001KT 26/M04 A302 RMK A01 T02621044  RH  013%=      5-min Rain = 0
KFL1 252345Z 22002KT 26/M04 A302 RMK A01 T02601041  RH  014%=      5-min Rain = 0
KFL1 252346Z 22005KT 26/M03 A302 RMK A01 T02601029  RH  015%=      5-min Rain = 0
KFL1 252347Z 23006KT 26/M03 A302 RMK A01 T02571029  RH  015%=      5-min Rain = 0
KFL1 252348Z 23005KT 26/M02 A302 RMK A01 T02571018  RH  016%=      5-min Rain = 0
KFL1 252349Z 23004KT 26/M01 A302 RMK A01 T02591012  RH  017%=      5-min Rain = 0
KFL1 252350Z 23003KT 26/M01 A302 RMK A01 T02591005  RH  018%=      5-min Rain = 0
KFL1 252351Z 21004KT 26/M00 A302 RMK A01 T02621001  RH  018%=      5-min Rain = 0
KFL1 252352Z 20002KT 26/00 A302 RMK A01 T02630004  RH  018%=      5-min Rain = 0
KFL1 252353Z 20002KT 27/M00 A302 RMK A01 T02651004  RH  017%=      5-min Rain = 0
KFL1 252354Z 22005KT 27/M01 A302 RMK A01 T02661008  RH  017%=      5-min Rain = 0
KFL1 252355Z 24003KT 27/00 A302 RMK A01 T02660002  RH  018%=      5-min Rain = 0
KFL1 252356Z 22006KT 26/02 A302 RMK A01 T02640020  RH  021%=      5-min Rain = 0
KFL1 252357Z 22005KT 26/00 A302 RMK A01 T026000-0  RH  018%=      5-min Rain = 0
KFL1 252358Z 22004KT 26/M03 A302 RMK A01 T02561031  RH  015%=      5-min Rain = 0
KFL1 252359Z 23005KT 25/M03 A302 RMK A01 T02511031  RH  015%=      5-min Rain = 0
KFL1 260000Z 23004KT 25/M03 A3019 RMK A01 T02471031  RH  016%=      5-min Rain = 0
KFL1 260001Z 25004KT 24/M02 A3019 RMK A01 T02431024  RH  017%=      5-min Rain = 0
KFL1 260002Z 22006KT 24/M01 A3019 RMK A01 T02391014  RH  019%=      5-min Rain = 0
KFL1 260003Z 21006KT 24/M02 A3019 RMK A01 T02351021  RH  018%=      5-min Rain = 0
KFL1 260004Z 21004KT 23/M01 A3019 RMK A01 T02331012  RH  020%=      5-min Rain = 0
KFL1 260005Z 21006KT 23/00 A3019 RMK A01 T02330004  RH  022%=      5-min Rain = 0
KFL1 260006Z 21007KT 23/M00 A3019 RMK A01 T02321003  RH  021%=      5-min Rain = 0
KFL1 260007Z 19005KT 23/M00 A3019 RMK A01 T02331003  RH  021%=      5-min Rain = 0
KFL1 260008Z 19004KT 23/M00 A3019 RMK A01 T02331003  RH  021%=      5-min Rain = 0
KFL1 260009Z 19004KT 23/M01 A3019 RMK A01 T02341008  RH  020%=      5-min Rain = 0
KFL1 260010Z 20004KT 23/01 A3019 RMK A01 T02340011  RH  023%=      5-min Rain = 0
KFL1 260011Z 19004KT 23/M00 A3019 RMK A01 T02331002  RH  021%=      5-min Rain = 0
KFL1 260012Z 19004KT 23/M00 A3019 RMK A01 T02311004  RH  021%=      5-min Rain = 0
KFL1 260013Z 20004KT 23/01 A3019 RMK A01 T02320005  RH  022%=      5-min Rain = 0
KFL1 260014Z 20004KT 23/00 A3019 RMK A01 T02290002  RH  022%=      5-min Rain = 0
KFL1 260015Z 20004KT 23/01 A3019 RMK A01 T02300010  RH  024%=      5-min Rain = 0
KFL1 260016Z 19004KT 23/00 A3019 RMK A01 T02270001  RH  022%=      5-min Rain = 0
KFL1 260017Z 19004KT 23/M00 A3019 RMK A01 T02271002  RH  022%=      5-min Rain = 0
KFL1 260018Z 19003KT 23/01 A3019 RMK A01 T02270009  RH  024%=      5-min Rain = 0
KFL1 260019Z 17003KT 23/M01 A3019 RMK A01 T02271007  RH  021%=      5-min Rain = 0
KFL1 260020Z 18003KT 23/M01 A3019 RMK A01 T02261012  RH  020%=      5-min Rain = 0
KFL1 260021Z 18002KT 23/M01 A3019 RMK A01 T02261014  RH  020%=      5-min Rain = 0
KFL1 260022Z 15002KT 23/M01 A3019 RMK A01 T02291008  RH  021%=      5-min Rain = 0
KFL1 260023Z 15002KT 23/M01 A3019 RMK A01 T02301006  RH  021%=      5-min Rain = 0
KFL1 260024Z 14001KT 23/M01 A3019 RMK A01 T02311011  RH  020%=      5-min Rain = 0
KFL1 260025Z 17001KT 23/M02 A3019 RMK A01 T02321015  RH  019%=      5-min Rain = 0
KFL1 260026Z 20001KT 24/00 A3019 RMK A01 T02350002  RH  021%=      5-min Rain = 0
KFL1 260027Z 18001KT 23/M00 A3019 RMK A01 T02341002  RH  021%=      5-min Rain = 0
KFL1 260028Z 18001KT 23/M01 A3019 RMK A01 T02341010  RH  020%=      5-min Rain = 0
KFL1 260029Z 18001KT 24/M02 A3019 RMK A01 T02351019  RH  018%=      5-min Rain = 0
KFL1 260030Z 22001KT 23/M03 A3019 RMK A01 T02341026  RH  018%=      5-min Rain = 0
KFL1 260031Z 28004KT 23/03 A3019 RMK A01 T02330031  RH  027%=      5-min Rain = 0
KFL1 260032Z 28002KT 23/05 A3019 RMK A01 T02280054  RH  032%=      5-min Rain = 0
KFL1 260033Z 28001KT 23/02 A3019 RMK A01 T02250024  RH  027%=      5-min Rain = 0
KFL1 260034Z 20001KT 22/M01 A3019 RMK A01 T02241008  RH  021%=      5-min Rain = 0
KFL1 260035Z 20001KT 22/00 A3019 RMK A01 T02240001  RH  023%=      5-min Rain = 0
KFL1 260036Z 20002KT 23/M00 A3019 RMK A01 T02251001  RH  022%=      5-min Rain = 0
KFL1 260037Z 24002KT 23/02 A3019 RMK A01 T02250019  RH  026%=      5-min Rain = 0
KFL1 260038Z 22003KT 23/03 A3019 RMK A01 T02250034  RH  029%=      5-min Rain = 0
KFL1 260039Z 21002KT 22/03 A3019 RMK A01 T02240025  RH  027%=      5-min Rain = 0
KFL1 260040Z 21003KT 22/02 A3019 RMK A01 T02240018  RH  026%=      5-min Rain = 0
KFL1 260041Z 20005KT 22/02 A3019 RMK A01 T02220019  RH  026%=      5-min Rain = 0
KFL1 260042Z 21004KT 22/01 A3019 RMK A01 T02230006  RH  024%=      5-min Rain = 0
KFL1 260043Z 21004KT 22/02 A3019 RMK A01 T02210016  RH  026%=      5-min Rain = 0
KFL1 260044Z 21005KT 22/02 A3019 RMK A01 T02190020  RH  027%=      5-min Rain = 0
KFL1 260045Z 21005KT 22/02 A3019 RMK A01 T02180015  RH  026%=      5-min Rain = 0
KFL1 260046Z 22004KT 22/02 A3019 RMK A01 T02170017  RH  027%=      5-min Rain = 0
KFL1 260047Z 22005KT 22/02 A3019 RMK A01 T02150018  RH  027%=      5-min Rain = 0
KFL1 260048Z 23005KT 21/00 A3019 RMK A01 T02140004  RH  025%=      5-min Rain = 0
KFL1 260049Z 22005KT 21/01 A3019 RMK A01 T02120011  RH  026%=      5-min Rain = 0
KFL1 260050Z 22005KT 21/02 A3019 RMK A01 T02110015  RH  027%=      5-min Rain = 0
KFL1 260051Z 22005KT 21/02 A3019 RMK A01 T02100018  RH  028%=      5-min Rain = 0
KFL1 260052Z 22005KT 21/01 A3019 RMK A01 T02080014  RH  028%=      5-min Rain = 0
KFL1 260053Z 23005KT 21/02 A3019 RMK A01 T02080018  RH  028%=      5-min Rain = 0
KFL1 260054Z 23005KT 21/01 A3019 RMK A01 T02060014  RH  028%=      5-min Rain = 0
KFL1 260055Z 23004KT 21/04 A3019 RMK A01 T02050035  RH  033%=      5-min Rain = 0
KFL1 260056Z 24004KT 20/04 A3019 RMK A01 T02030042  RH  035%=      5-min Rain = 0
KFL1 260057Z 24004KT 20/03 A3019 RMK A01 T02010030  RH  032%=      5-min Rain = 0
KFL1 260058Z 23004KT 20/03 A3019 RMK A01 T02010032  RH  033%=      5-min Rain = 0
KFL1 260059Z 23004KT 20/03 A3019 RMK A01 T01990025  RH  032%=      5-min Rain = 0
KFL1 260100Z 23004KT 20/03 A3019 RMK A01 T01990030  RH  033%=      5-min Rain = 0
KFL1 260101Z 23004KT 20/04 A3019 RMK A01 T01990035  RH  034%=      5-min Rain = 0
KFL1 260102Z 23004KT 20/03 A3019 RMK A01 T01980031  RH  033%=      5-min Rain = 0
KFL1 260103Z 23004KT 20/02 A3019 RMK A01 T01980017  RH  030%=      5-min Rain = 0
KFL1 260104Z 24003KT 20/02 A3019 RMK A01 T01980024  RH  032%=      5-min Rain = 0
KFL1 260105Z 24003KT 20/04 A3019 RMK A01 T01980038  RH  035%=      5-min Rain = 0
KFL1 260106Z 23003KT 20/03 A3019 RMK A01 T01970028  RH  033%=      5-min Rain = 0
KFL1 260107Z 24003KT 20/02 A3019 RMK A01 T01970023  RH  031%=      5-min Rain = 0
KFL1 260108Z 25003KT 20/03 A3019 RMK A01 T01960030  RH  033%=      5-min Rain = 0
KFL1 260109Z 25002KT 20/06 A3019 RMK A01 T01970058  RH  040%=      5-min Rain = 0
KFL1 260110Z 25002KT 20/05 A3019 RMK A01 T01960054  RH  040%=      5-min Rain = 0
KFL1 260111Z 25003KT 20/04 A3019 RMK A01 T01950040  RH  036%=      5-min Rain = 0
KFL1 260112Z 25002KT 19/04 A3019 RMK A01 T01940037  RH  035%=      5-min Rain = 0
KFL1 260113Z 25003KT 19/03 A3019 RMK A01 T01940034  RH  035%=      5-min Rain = 0
KFL1 260114Z 26002KT 19/03 A3019 RMK A01 T01940034  RH  035%=      5-min Rain = 0
KFL1 260115Z 25002KT 20/03 A3019 RMK A01 T01950027  RH  033%=      5-min Rain = 0
KFL1 260116Z 25002KT 20/03 A3019 RMK A01 T01950025  RH  032%=      5-min Rain = 0
KFL1 260117Z 26002KT 20/05 A3019 RMK A01 T01950045  RH  037%=      5-min Rain = 0
KFL1 260118Z 28002KT 20/05 A3019 RMK A01 T01950054  RH  040%=      5-min Rain = 0
KFL1 260119Z 26002KT 20/05 A3019 RMK A01 T01950047  RH  038%=      5-min Rain = 0
KFL1 260120Z 25003KT 20/04 A3019 RMK A01 T01950042  RH  036%=      5-min Rain = 0
KFL1 260121Z 24003KT 20/04 A3019 RMK A01 T01950035  RH  035%=      5-min Rain = 0
KFL1 260122Z 25003KT 20/03 A3019 RMK A01 T01960034  RH  034%=      5-min Rain = 0
KFL1 260123Z 25003KT 20/04 A3019 RMK A01 T01960043  RH  036%=      5-min Rain = 0
KFL1 260124Z 24003KT 20/05 A3019 RMK A01 T01970047  RH  037%=      5-min Rain = 0
KFL1 260125Z 25004KT 20/04 A3019 RMK A01 T01980043  RH  036%=      5-min Rain = 0
KFL1 260126Z 24004KT 20/05 A3019 RMK A01 T02000049  RH  037%=      5-min Rain = 0
KFL1 260127Z 25004KT 20/04 A3019 RMK A01 T02020041  RH  035%=      5-min Rain = 0
KFL1 260128Z 26004KT 20/04 A3019 RMK A01 T02030041  RH  034%=      5-min Rain = 0
KFL1 260129Z 27003KT 20/05 A3019 RMK A01 T02030048  RH  036%=      5-min Rain = 0
KFL1 260130Z 27003KT 20/04 A3019 RMK A01 T02040043  RH  035%=      5-min Rain = 0
KFL1 260131Z 26003KT 21/05 A3019 RMK A01 T02060045  RH  035%=      5-min Rain = 0
KFL1 260132Z 26002KT 21/04 A3019 RMK A01 T02080039  RH  033%=      5-min Rain = 0
KFL1 260133Z 26002KT 21/04 A3019 RMK A01 T02090037  RH  032%=      5-min Rain = 0
KFL1 260134Z 26002KT 21/05 A3019 RMK A01 T02120048  RH  034%=      5-min Rain = 0
KFL1 260135Z 25002KT 21/04 A3019 RMK A01 T02120036  RH  031%=      5-min Rain = 0
KFL1 260136Z 25002KT 22/04 A3019 RMK A01 T02160044  RH  033%=      5-min Rain = 0
KFL1 260137Z 24001KT 22/05 A3019 RMK A01 T02150048  RH  033%=      5-min Rain = 0
KFL1 260138Z 25001KT 22/05 A3019 RMK A01 T02160052  RH  034%=      5-min Rain = 0
KFL1 260139Z 24001KT 21/05 A3019 RMK A01 T02130052  RH  035%=      5-min Rain = 0
KFL1 260140Z 24001KT 21/05 A3019 RMK A01 T02130046  RH  034%=      5-min Rain = 0
KFL1 260141Z 22001KT 21/04 A3019 RMK A01 T02100035  RH  031%=      5-min Rain = 0
KFL1 260142Z 23001KT 21/04 A3019 RMK A01 T02110035  RH  031%=      5-min Rain = 0
KFL1 260143Z 23001KT 21/03 A3019 RMK A01 T02110034  RH  031%=      5-min Rain = 0
KFL1 260144Z 21001KT 21/04 A3019 RMK A01 T02110041  RH  033%=      5-min Rain = 0
KFL1 260145Z 18001KT 21/03 A3019 RMK A01 T02120032  RH  031%=      5-min Rain = 0
KFL1 260146Z 18001KT 21/04 A3019 RMK A01 T02090038  RH  032%=      5-min Rain = 0
KFL1 260147Z 18000KT 21/03 A3019 RMK A01 T02090026  RH  030%=      5-min Rain = 0
KFL1 260148Z 17000KT 21/03 A302 RMK A01 T02090034  RH  032%=      5-min Rain = 0
KFL1 260149Z 13000KT 21/03 A302 RMK A01 T02090032  RH  031%=      5-min Rain = 0
KFL1 260150Z 13000KT 21/02 A302 RMK A01 T02080024  RH  030%=      5-min Rain = 0
KFL1 260151Z 12000KT 21/02 A302 RMK A01 T02080018  RH  028%=      5-min Rain = 0
KFL1 260152Z 13001KT 21/01 A302 RMK A01 T02100010  RH  027%=      5-min Rain = 0
KFL1 260153Z 10000KT 21/01 A302 RMK A01 T02090012  RH  027%=      5-min Rain = 0
KFL1 260154Z 18000KT 21/01 A302 RMK A01 T02100014  RH  027%=      5-min Rain = 0
KFL1 260155Z 22001KT 21/01 A302 RMK A01 T02110012  RH  027%=      5-min Rain = 0
KFL1 260156Z 00000KT 21/01 A302 RMK A01 T02100013  RH  027%=      5-min Rain = 0
KFL1 260157Z 11000KT 21/01 A302 RMK A01 T02110013  RH  027%=      5-min Rain = 0
KFL1 260158Z 19000KT 21/01 A302 RMK A01 T02100006  RH  026%=      5-min Rain = 0
KFL1 260159Z 09000KT 21/01 A3019 RMK A01 T02100005  RH  025%=      5-min Rain = 0
KFL1 260200Z 11000KT 21/02 A302 RMK A01 T02110016  RH  027%=      5-min Rain = 0
KFL1 260201Z 08000KT 21/05 A302 RMK A01 T02100051  RH  035%=      5-min Rain = 0
KFL1 260202Z 11000KT 21/05 A302 RMK A01 T02090053  RH  036%=      5-min Rain = 0
KFL1 260203Z 18001KT 21/06 A302 RMK A01 T02090057  RH  037%=      5-min Rain = 0
KFL1 260204Z 16000KT 21/02 A3019 RMK A01 T02070021  RH  029%=      5-min Rain = 0
KFL1 260205Z 21001KT 21/04 A3019 RMK A01 T02060036  RH  033%=      5-min Rain = 0
KFL1 260206Z 21000KT 21/02 A3019 RMK A01 T02060024  RH  030%=      5-min Rain = 0
KFL1 260207Z 00000KT 20/02 A3019 RMK A01 T02040023  RH  030%=      5-min Rain = 0
KFL1 260208Z 00000KT 20/02 A3019 RMK A01 T02040017  RH  029%=      5-min Rain = 0
KFL1 260209Z 00000KT 20/01 A3019 RMK A01 T02030006  RH  027%=      5-min Rain = 0
KFL1 260210Z 00000KT 20/01 A3019 RMK A01 T02040007  RH  027%=      5-min Rain = 0
KFL1 260211Z 22001KT 20/03 A302 RMK A01 T02030026  RH  031%=      5-min Rain = 0
KFL1 260212Z 23001KT 20/02 A302 RMK A01 T02020023  RH  030%=      5-min Rain = 0
KFL1 260213Z 22001KT 20/00 A302 RMK A01 T02000003  RH  027%=      5-min Rain = 0
KFL1 260214Z 22001KT 20/M00 A302 RMK A01 T02011004  RH  025%=      5-min Rain = 0
KFL1 260215Z 22001KT 20/00 A302 RMK A01 T02010001  RH  026%=      5-min Rain = 0
KFL1 260216Z 21001KT 20/02 A302 RMK A01 T02020017  RH  029%=      5-min Rain = 0
KFL1 260217Z 21001KT 20/01 A302 RMK A01 T02020010  RH  028%=      5-min Rain = 0
KFL1 260218Z 21001KT 20/01 A302 RMK A01 T02020012  RH  028%=      5-min Rain = 0
KFL1 260219Z 20001KT 20/01 A302 RMK A01 T02000005  RH  027%=      5-min Rain = 0
KFL1 260220Z 20001KT 20/00 A302 RMK A01 T02010004  RH  027%=      5-min Rain = 0
KFL1 260221Z 20001KT 20/02 A302 RMK A01 T02000019  RH  030%=      5-min Rain = 0
KFL1 260222Z 18001KT 20/01 A302 RMK A01 T02000011  RH  028%=      5-min Rain = 0
KFL1 260223Z 19001KT 20/03 A302 RMK A01 T02000032  RH  033%=      5-min Rain = 0
KFL1 260224Z 15001KT 20/04 A302 RMK A01 T01970040  RH  035%=      5-min Rain = 0
KFL1 260225Z 16001KT 20/03 A302 RMK A01 T01950034  RH  034%=      5-min Rain = 0
KFL1 260226Z 16001KT 19/04 A302 RMK A01 T01930040  RH  036%=      5-min Rain = 0
KFL1 260227Z 16001KT 19/03 A302 RMK A01 T01910029  RH  034%=      5-min Rain = 0
KFL1 260228Z 13000KT 19/03 A302 RMK A01 T01900028  RH  034%=      5-min Rain = 0
KFL1 260229Z 00000KT 19/04 A302 RMK A01 T01890036  RH  036%=      5-min Rain = 0
KFL1 260230Z 00000KT 19/05 A302 RMK A01 T01860047  RH  040%=      5-min Rain = 0
KFL1 260231Z 03001KT 18/06 A302 RMK A01 T01800055  RH  044%=      5-min Rain = 0
KFL1 260232Z 02001KT 18/06 A302 RMK A01 T01750060  RH  047%=      5-min Rain = 0
KFL1 260233Z 00000KT 17/06 A302 RMK A01 T01680064  RH  050%=      5-min Rain = 0
KFL1 260234Z 00000KT 16/07 A302 RMK A01 T01610068  RH  054%=      5-min Rain = 0
KFL1 260235Z 00000KT 15/07 A302 RMK A01 T01530067  RH  057%=      5-min Rain = 0
KFL1 260236Z 21000KT 15/07 A302 RMK A01 T01490066  RH  058%=      5-min Rain = 0
KFL1 260237Z 33000KT 14/06 A302 RMK A01 T01430062  RH  058%=      5-min Rain = 0
KFL1 260238Z 36000KT 14/06 A302 RMK A01 T01390063  RH  060%=      5-min Rain = 0
KFL1 260239Z 36000KT 14/06 A302 RMK A01 T01370063  RH  061%=      5-min Rain = 0
KFL1 260240Z 31000KT 13/06 A302 RMK A01 T01340064  RH  062%=      5-min Rain = 0
KFL1 260241Z 33001KT 13/06 A302 RMK A01 T01300061  RH  063%=      5-min Rain = 0
KFL1 260242Z 30001KT 13/06 A302 RMK A01 T01280060  RH  063%=      5-min Rain = 0
KFL1 260243Z 32001KT 13/06 A302 RMK A01 T01280061  RH  064%=      5-min Rain = 0
KFL1 260244Z 32001KT 13/06 A302 RMK A01 T01260059  RH  063%=      5-min Rain = 0
KFL1 260245Z 32001KT 13/06 A302 RMK A01 T01250058  RH  064%=      5-min Rain = 0
KFL1 260246Z 31001KT 12/06 A302 RMK A01 T01230057  RH  064%=      5-min Rain = 0
KFL1 260247Z 32002KT 12/06 A302 RMK A01 T01220058  RH  065%=      5-min Rain = 0
KFL1 260248Z 31001KT 12/06 A302 RMK A01 T01200058  RH  066%=      5-min Rain = 0
KFL1 260249Z 30001KT 12/06 A302 RMK A01 T01190057  RH  066%=      5-min Rain = 0
KFL1 260250Z 30002KT 12/06 A302 RMK A01 T01190058  RH  066%=      5-min Rain = 0
KFL1 260251Z 30003KT 12/06 A3021 RMK A01 T01180059  RH  067%=      5-min Rain = 0
KFL1 260252Z 32003KT 12/06 A3021 RMK A01 T01150058  RH  068%=      5-min Rain = 0
KFL1 260253Z 34006KT 11/06 A3021 RMK A01 T01130060  RH  070%=      5-min Rain = 0
KFL1 260254Z 33005KT 11/06 A3021 RMK A01 T01110061  RH  071%=      5-min Rain = 0
KFL1 260255Z 32005KT 11/06 A3021 RMK A01 T01100060  RH  071%=      5-min Rain = 0
KFL1 260256Z 33004KT 11/06 A3021 RMK A01 T01100058  RH  070%=      5-min Rain = 0
KFL1 260257Z 33004KT 11/06 A3021 RMK A01 T01100056  RH  069%=      5-min Rain = 0
KFL1 260258Z 33004KT 11/06 A3021 RMK A01 T01110055  RH  069%=      5-min Rain = 0
KFL1 260259Z 33004KT 11/05 A3021 RMK A01 T01110054  RH  068%=      5-min Rain = 0
KFL1 260300Z 33004KT 11/05 A3021 RMK A01 T01110053  RH  067%=      5-min Rain = 0
KFL1 260301Z 33004KT 11/05 A3021 RMK A01 T01110052  RH  067%=      5-min Rain = 0
KFL1 260302Z 33004KT 11/05 A3021 RMK A01 T01120051  RH  066%=      5-min Rain = 0
KFL1 260303Z 34004KT 11/05 A3021 RMK A01 T01130051  RH  066%=      5-min Rain = 0
KFL1 260304Z 34004KT 11/05 A3021 RMK A01 T01130048  RH  064%=      5-min Rain = 0
KFL1 260305Z 34004KT 11/05 A3021 RMK A01 T01140046  RH  063%=      5-min Rain = 0
KFL1 260306Z 34004KT 12/04 A3021 RMK A01 T01150044  RH  061%=      5-min Rain = 0
KFL1 260307Z 35005KT 12/04 A3021 RMK A01 T01150041  RH  060%=      5-min Rain = 0
KFL1 260308Z 00006KT 12/04 A3021 RMK A01 T01160041  RH  060%=      5-min Rain = 0
KFL1 260309Z 01007KT 12/04 A3021 RMK A01 T01170035  RH  057%=      5-min Rain = 0
KFL1 260310Z 00007KT 12/03 A3021 RMK A01 T01180034  RH  056%=      5-min Rain = 0
KFL1 260311Z 00006KT 12/04 A3021 RMK A01 T01180035  RH  057%=      5-min Rain = 0
KFL1 260312Z 36006KT 12/03 A3021 RMK A01 T01190032  RH  055%=      5-min Rain = 0
KFL1 260313Z 36005KT 12/03 A3021 RMK A01 T01190032  RH  055%=      5-min Rain = 0
KFL1 260314Z 35005KT 12/03 A3021 RMK A01 T01180033  RH  056%=      5-min Rain = 0
KFL1 260315Z 35006KT 12/04 A3022 RMK A01 T01180036  RH  057%=      5-min Rain = 0
KFL1 260316Z 35006KT 12/04 A3022 RMK A01 T01150035  RH  058%=      5-min Rain = 0
KFL1 260317Z 35005KT 11/04 A3022 RMK A01 T01140035  RH  058%=      5-min Rain = 0
KFL1 260318Z 35006KT 11/03 A3022 RMK A01 T01140033  RH  058%=      5-min Rain = 0
KFL1 260319Z 35006KT 11/03 A3022 RMK A01 T01130032  RH  057%=      5-min Rain = 0
KFL1 260320Z 36006KT 11/03 A3022 RMK A01 T01140031  RH  057%=      5-min Rain = 0
KFL1 260321Z 36006KT 11/03 A3022 RMK A01 T01140031  RH  056%=      5-min Rain = 0
KFL1 260322Z 00006KT 11/03 A3022 RMK A01 T01140029  RH  056%=      5-min Rain = 0
KFL1 260323Z 00007KT 11/03 A3022 RMK A01 T01130029  RH  056%=      5-min Rain = 0
KFL1 260324Z 00008KT 11/03 A3022 RMK A01 T01120031  RH  057%=      5-min Rain = 0
KFL1 260325Z 01007KT 11/03 A3022 RMK A01 T01110031  RH  058%=      5-min Rain = 0
KFL1 260326Z 01008KT 11/03 A3022 RMK A01 T01100030  RH  057%=      5-min Rain = 0
KFL1 260327Z 01008KT 11/03 A3022 RMK A01 T01090029  RH  057%=      5-min Rain = 0
KFL1 260328Z 01007KT 11/03 A3022 RMK A01 T01080026  RH  057%=      5-min Rain = 0
KFL1 260329Z 01007KT 11/03 A3022 RMK A01 T01070025  RH  057%=      5-min Rain = 0
KFL1 260330Z 01007KT 11/02 A3022 RMK A01 T01070024  RH  057%=      5-min Rain = 0
KFL1 260331Z 01007KT 11/02 A3022 RMK A01 T01070024  RH  057%=      5-min Rain = 0
KFL1 260332Z 00007KT 11/03 A3022 RMK A01 T01070025  RH  057%=      5-min Rain = 0
KFL1 260333Z 00007KT 11/03 A3022 RMK A01 T01050025  RH  057%=      5-min Rain = 0
KFL1 260334Z 00007KT 10/03 A3022 RMK A01 T01040025  RH  058%=      5-min Rain = 0
KFL1 260335Z 00007KT 11/03 A3022 RMK A01 T01050026  RH  058%=      5-min Rain = 0
KFL1 260336Z 00007KT 10/03 A3022 RMK A01 T01040026  RH  058%=      5-min Rain = 0
KFL1 260337Z 00007KT 10/03 A3022 RMK A01 T01040026  RH  058%=      5-min Rain = 0
KFL1 260338Z 36006KT 10/03 A3022 RMK A01 T01020025  RH  058%=      5-min Rain = 0
KFL1 260339Z 36006KT 10/02 A3022 RMK A01 T01040024  RH  058%=      5-min Rain = 0
KFL1 260340Z 35006KT 10/02 A3022 RMK A01 T01030022  RH  057%=      5-min Rain = 0
KFL1 260341Z 36006KT 10/02 A3022 RMK A01 T01040022  RH  057%=      5-min Rain = 0
KFL1 260342Z 35006KT 11/02 A3022 RMK A01 T01050022  RH  056%=      5-min Rain = 0
KFL1 260343Z 35006KT 10/02 A3022 RMK A01 T01030020  RH  056%=      5-min Rain = 0
KFL1 260344Z 35006KT 10/02 A3022 RMK A01 T01040020  RH  056%=      5-min Rain = 0
KFL1 260345Z 35006KT 10/02 A3022 RMK A01 T01040020  RH  056%=      5-min Rain = 0
KFL1 260346Z 35006KT 11/02 A3023 RMK A01 T01050020  RH  056%=      5-min Rain = 0
KFL1 260347Z 35006KT 11/02 A3023 RMK A01 T01050019  RH  055%=      5-min Rain = 0
KFL1 260348Z 35006KT 11/02 A3023 RMK A01 T01060020  RH  055%=      5-min Rain = 0
KFL1 260349Z 35005KT 11/02 A3023 RMK A01 T01060018  RH  054%=      5-min Rain = 0
KFL1 260350Z 35005KT 11/02 A3023 RMK A01 T01060018  RH  054%=      5-min Rain = 0
KFL1 260351Z 36006KT 11/02 A3023 RMK A01 T01050019  RH  055%=      5-min Rain = 0
KFL1 260352Z 35006KT 11/02 A3023 RMK A01 T01050021  RH  056%=      5-min Rain = 0
KFL1 260353Z 35005KT 10/02 A3023 RMK A01 T01030021  RH  057%=      5-min Rain = 0
KFL1 260354Z 35006KT 10/02 A3023 RMK A01 T01030021  RH  057%=      5-min Rain = 0
KFL1 260355Z 35005KT 10/02 A3023 RMK A01 T01040022  RH  057%=      5-min Rain = 0
KFL1 260356Z 35005KT 10/02 A3023 RMK A01 T01000019  RH  057%=      5-min Rain = 0
KFL1 260357Z 35005KT 10/02 A3023 RMK A01 T01010020  RH  057%=      5-min Rain = 0
KFL1 260358Z 35006KT 10/02 A3023 RMK A01 T01010019  RH  057%=      5-min Rain = 0
KFL1 260359Z 34005KT 10/02 A3023 RMK A01 T01010017  RH  056%=      5-min Rain = 0
KFL1 260400Z 34005KT 10/02 A3023 RMK A01 T01020019  RH  056%=      5-min Rain = 0
KFL1 260401Z 34005KT 10/02 A3023 RMK A01 T01010019  RH  057%=      5-min Rain = 0
KFL1 260402Z 34005KT 10/02 A3023 RMK A01 T01020019  RH  057%=      5-min Rain = 0
KFL1 260403Z 33005KT 10/02 A3023 RMK A01 T01010018  RH  056%=      5-min Rain = 0
KFL1 260404Z 33005KT 10/02 A3023 RMK A01 T01010020  RH  057%=      5-min Rain = 0
KFL1 260405Z 33005KT 10/02 A3023 RMK A01 T01000020  RH  057%=      5-min Rain = 0
KFL1 260406Z 33004KT 10/02 A3023 RMK A01 T01010017  RH  056%=      5-min Rain = 0
KFL1 260407Z 31004KT 11/01 A3023 RMK A01 T01060011  RH  052%=      5-min Rain = 0
KFL1 260408Z 31004KT 11/01 A3024 RMK A01 T01100008  RH  049%=      5-min Rain = 0
KFL1 260409Z 31005KT 11/01 A3024 RMK A01 T01140006  RH  047%=      5-min Rain = 0
KFL1 260410Z 32004KT 12/01 A3024 RMK A01 T01160009  RH  048%=      5-min Rain = 0
KFL1 260411Z 32004KT 12/01 A3024 RMK A01 T01160009  RH  048%=      5-min Rain = 0
KFL1 260412Z 33003KT 12/01 A3024 RMK A01 T01170006  RH  046%=      5-min Rain = 0
KFL1 260413Z 33003KT 12/01 A3024 RMK A01 T01160012  RH  049%=      5-min Rain = 0
KFL1 260414Z 31004KT 11/01 A3024 RMK A01 T01140012  RH  050%=      5-min Rain = 0
KFL1 260415Z 32004KT 11/01 A3024 RMK A01 T01110013  RH  051%=      5-min Rain = 0
KFL1 260416Z 32004KT 11/02 A3024 RMK A01 T01100015  RH  052%=      5-min Rain = 0
KFL1 260417Z 34004KT 11/02 A3024 RMK A01 T01070015  RH  053%=      5-min Rain = 0
KFL1 260418Z 33004KT 10/01 A3024 RMK A01 T01040012  RH  053%=      5-min Rain = 0
KFL1 260419Z 33004KT 10/01 A3024 RMK A01 T01030013  RH  054%=      5-min Rain = 0
KFL1 260420Z 33004KT 10/01 A3024 RMK A01 T01030013  RH  054%=      5-min Rain = 0
KFL1 260421Z 32004KT 10/02 A3024 RMK A01 T01020016  RH  055%=      5-min Rain = 0
KFL1 260422Z 31004KT 10/02 A3024 RMK A01 T01000016  RH  056%=      5-min Rain = 0
KFL1 260423Z 31004KT 10/02 A3024 RMK A01 T00990015  RH  056%=      5-min Rain = 0
KFL1 260424Z 32004KT 10/02 A3025 RMK A01 T00970016  RH  057%=      5-min Rain = 0
KFL1 260425Z 32004KT 10/02 A3025 RMK A01 T00970016  RH  057%=      5-min Rain = 0
KFL1 260426Z 33004KT 10/01 A3025 RMK A01 T00970014  RH  056%=      5-min Rain = 0
KFL1 260427Z 33004KT 10/01 A3025 RMK A01 T00970014  RH  056%=      5-min Rain = 0
KFL1 260428Z 34004KT 10/02 A3025 RMK A01 T00980015  RH  056%=      5-min Rain = 0
KFL1 260429Z 34004KT 10/02 A3025 RMK A01 T00980015  RH  056%=      5-min Rain = 0
KFL1 260430Z 34004KT 10/02 A3025 RMK A01 T00970016  RH  057%=      5-min Rain = 0
KFL1 260431Z 35005KT 10/02 A3025 RMK A01 T00970019  RH  058%=      5-min Rain = 0
KFL1 260432Z 35005KT 10/02 A3025 RMK A01 T00960021  RH  059%=      5-min Rain = 0
KFL1 260433Z 36005KT 09/02 A3025 RMK A01 T00940018  RH  059%=      5-min Rain = 0
KFL1 260434Z 00006KT 09/02 A3025 RMK A01 T00930018  RH  059%=      5-min Rain = 0
KFL1 260435Z 00006KT 09/02 A3025 RMK A01 T00920019  RH  060%=      5-min Rain = 0
KFL1 260436Z 00007KT 09/02 A3025 RMK A01 T00910019  RH  061%=      5-min Rain = 0
KFL1 260437Z 00007KT 09/02 A3025 RMK A01 T00910018  RH  060%=      5-min Rain = 0
KFL1 260438Z 00007KT 09/02 A3025 RMK A01 T00890016  RH  060%=      5-min Rain = 0
KFL1 260439Z 00007KT 09/02 A3025 RMK A01 T00900015  RH  060%=      5-min Rain = 0
KFL1 260440Z 01007KT 09/01 A3025 RMK A01 T00910013  RH  058%=      5-min Rain = 0
KFL1 260441Z 01006KT 09/01 A3025 RMK A01 T00910009  RH  057%=      5-min Rain = 0
KFL1 260442Z 01006KT 09/01 A3025 RMK A01 T00920008  RH  056%=      5-min Rain = 0
KFL1 260443Z 00006KT 09/01 A3025 RMK A01 T00930007  RH  055%=      5-min Rain = 0
KFL1 260444Z 00006KT 10/01 A3025 RMK A01 T00950007  RH  054%=      5-min Rain = 0
KFL1 260445Z 00006KT 10/01 A3025 RMK A01 T00950006  RH  054%=      5-min Rain = 0
KFL1 260446Z 01006KT 10/01 A3025 RMK A01 T00960006  RH  054%=      5-min Rain = 0
KFL1 260447Z 01006KT 10/01 A3025 RMK A01 T00980007  RH  053%=      5-min Rain = 0
KFL1 260448Z 01006KT 10/01 A3025 RMK A01 T00980008  RH  053%=      5-min Rain = 0
KFL1 260449Z 01007KT 10/01 A3025 RMK A01 T00970006  RH  053%=      5-min Rain = 0
KFL1 260450Z 01007KT 10/01 A3025 RMK A01 T00970007  RH  053%=      5-min Rain = 0
KFL1 260451Z 01007KT 10/01 A3025 RMK A01 T00970008  RH  054%=      5-min Rain = 0
KFL1 260452Z 02007KT 10/01 A3025 RMK A01 T00970007  RH  054%=      5-min Rain = 0
KFL1 260453Z 02007KT 10/01 A3025 RMK A01 T00970005  RH  052%=      5-min Rain = 0
KFL1 260454Z 01007KT 10/01 A3025 RMK A01 T00980005  RH  053%=      5-min Rain = 0
KFL1 260455Z 01007KT 10/01 A3025 RMK A01 T00980006  RH  053%=      5-min Rain = 0
KFL1 260456Z 01007KT 10/01 A3025 RMK A01 T00990007  RH  053%=      5-min Rain = 0
KFL1 260457Z 01007KT 10/01 A3025 RMK A01 T00990006  RH  052%=      5-min Rain = 0
KFL1 260458Z 01007KT 10/00 A3025 RMK A01 T00980003  RH  052%=      5-min Rain = 0
KFL1 260459Z 01007KT 10/00 A3025 RMK A01 T00990004  RH  052%=      5-min Rain = 0

Page generated in 0.0812 seconds.